<?xml version="1.0" encoding="UTF-8" standalone="no" ?>
<gpx xmlns="http://www.topografix.com/GPX/1/1" xmlns:xsi="http://www.w3.org/2001/XMLSchema-instance" xsi:schemaLocation="http://www.topografix.com/GPX/1/1 http://www.topografix.com/GPX/1/1/gpx.xsd" version="1.1" creator="VisuGPX - https://www.visugpx.com">
  <metadata>
    <name>Course à pied dans l'après-midi</name>
  </metadata>
  <trk>
    <name><![CDATA[Course à pied dans l'après-midi_1]]></name>
    <trkseg>
      <trkpt lat="44.39829" lon="4.3875">
        <ele>98.9</ele>
        <time>2024-02-28T15:08:49Z</time>
      </trkpt>
      <trkpt lat="44.39829" lon="4.38752">
        <ele>98.8</ele>
        <time>2024-02-28T15:08:52Z</time>
      </trkpt>
      <trkpt lat="44.39832" lon="4.38756">
        <ele>98.7</ele>
        <time>2024-02-28T15:08:55Z</time>
      </trkpt>
      <trkpt lat="44.39836" lon="4.38762">
        <ele>98.6</ele>
        <time>2024-02-28T15:08:59Z</time>
      </trkpt>
      <trkpt lat="44.39838" lon="4.38787">
        <ele>98.1</ele>
        <time>2024-02-28T15:09:06Z</time>
      </trkpt>
      <trkpt lat="44.39837" lon="4.38816">
        <ele>97.5</ele>
        <time>2024-02-28T15:09:13Z</time>
      </trkpt>
      <trkpt lat="44.39838" lon="4.38843">
        <ele>96.3</ele>
        <time>2024-02-28T15:09:20Z</time>
      </trkpt>
      <trkpt lat="44.39843" lon="4.38867">
        <ele>95</ele>
        <time>2024-02-28T15:09:26Z</time>
      </trkpt>
      <trkpt lat="44.39831" lon="4.38886">
        <ele>94</ele>
        <time>2024-02-28T15:09:32Z</time>
      </trkpt>
      <trkpt lat="44.39816" lon="4.38901">
        <ele>93.6</ele>
        <time>2024-02-28T15:09:38Z</time>
      </trkpt>
      <trkpt lat="44.39814" lon="4.38903">
        <ele>93.6</ele>
        <time>2024-02-28T15:09:39Z</time>
      </trkpt>
      <trkpt lat="44.39811" lon="4.38907">
        <ele>93.5</ele>
        <time>2024-02-28T15:09:48Z</time>
      </trkpt>
      <trkpt lat="44.39808" lon="4.38913">
        <ele>93.5</ele>
        <time>2024-02-28T15:09:51Z</time>
      </trkpt>
      <trkpt lat="44.39793" lon="4.38928">
        <ele>93.6</ele>
        <time>2024-02-28T15:09:58Z</time>
      </trkpt>
      <trkpt lat="44.39773" lon="4.38935">
        <ele>93.6</ele>
        <time>2024-02-28T15:10:05Z</time>
      </trkpt>
      <trkpt lat="44.39754" lon="4.38942">
        <ele>93.1</ele>
        <time>2024-02-28T15:10:12Z</time>
      </trkpt>
      <trkpt lat="44.39736" lon="4.38952">
        <ele>91.7</ele>
        <time>2024-02-28T15:10:19Z</time>
      </trkpt>
      <trkpt lat="44.39716" lon="4.38958">
        <ele>90.2</ele>
        <time>2024-02-28T15:10:26Z</time>
      </trkpt>
      <trkpt lat="44.39697" lon="4.38968">
        <ele>89.5</ele>
        <time>2024-02-28T15:10:33Z</time>
      </trkpt>
      <trkpt lat="44.39685" lon="4.38979">
        <ele>89.2</ele>
        <time>2024-02-28T15:10:39Z</time>
      </trkpt>
      <trkpt lat="44.39689" lon="4.39005">
        <ele>88.9</ele>
        <time>2024-02-28T15:10:48Z</time>
      </trkpt>
      <trkpt lat="44.39698" lon="4.39027">
        <ele>88.9</ele>
        <time>2024-02-28T15:10:56Z</time>
      </trkpt>
      <trkpt lat="44.39699" lon="4.39027">
        <ele>88.9</ele>
        <time>2024-02-28T15:10:59Z</time>
      </trkpt>
      <trkpt lat="44.39699" lon="4.39027">
        <ele>88.9</ele>
        <time>2024-02-28T15:11:01Z</time>
      </trkpt>
      <trkpt lat="44.39701" lon="4.39033">
        <ele>88.9</ele>
        <time>2024-02-28T15:11:07Z</time>
      </trkpt>
      <trkpt lat="44.39709" lon="4.39059">
        <ele>88.9</ele>
        <time>2024-02-28T15:11:15Z</time>
      </trkpt>
      <trkpt lat="44.39715" lon="4.39083">
        <ele>88.8</ele>
        <time>2024-02-28T15:11:22Z</time>
      </trkpt>
      <trkpt lat="44.3972" lon="4.3911">
        <ele>88.8</ele>
        <time>2024-02-28T15:11:30Z</time>
      </trkpt>
      <trkpt lat="44.3973" lon="4.39135">
        <ele>89</ele>
        <time>2024-02-28T15:11:37Z</time>
      </trkpt>
      <trkpt lat="44.39732" lon="4.39163">
        <ele>89.3</ele>
        <time>2024-02-28T15:11:44Z</time>
      </trkpt>
      <trkpt lat="44.39735" lon="4.39188">
        <ele>89.3</ele>
        <time>2024-02-28T15:11:50Z</time>
      </trkpt>
      <trkpt lat="44.3974" lon="4.39213">
        <ele>89.1</ele>
        <time>2024-02-28T15:11:56Z</time>
      </trkpt>
      <trkpt lat="44.39746" lon="4.3924">
        <ele>88.8</ele>
        <time>2024-02-28T15:12:03Z</time>
      </trkpt>
      <trkpt lat="44.3975" lon="4.39267">
        <ele>88.5</ele>
        <time>2024-02-28T15:12:10Z</time>
      </trkpt>
      <trkpt lat="44.39755" lon="4.39295">
        <ele>88.3</ele>
        <time>2024-02-28T15:12:17Z</time>
      </trkpt>
      <trkpt lat="44.3976" lon="4.3932">
        <ele>88.1</ele>
        <time>2024-02-28T15:12:23Z</time>
      </trkpt>
      <trkpt lat="44.39767" lon="4.39345">
        <ele>87.9</ele>
        <time>2024-02-28T15:12:29Z</time>
      </trkpt>
      <trkpt lat="44.39773" lon="4.39372">
        <ele>87.8</ele>
        <time>2024-02-28T15:12:36Z</time>
      </trkpt>
      <trkpt lat="44.39785" lon="4.39392">
        <ele>88.2</ele>
        <time>2024-02-28T15:12:42Z</time>
      </trkpt>
      <trkpt lat="44.39796" lon="4.39412">
        <ele>89</ele>
        <time>2024-02-28T15:12:48Z</time>
      </trkpt>
      <trkpt lat="44.39809" lon="4.39432">
        <ele>89.8</ele>
        <time>2024-02-28T15:12:55Z</time>
      </trkpt>
      <trkpt lat="44.39829" lon="4.39441">
        <ele>90.4</ele>
        <time>2024-02-28T15:13:02Z</time>
      </trkpt>
      <trkpt lat="44.39848" lon="4.39449">
        <ele>90.9</ele>
        <time>2024-02-28T15:13:09Z</time>
      </trkpt>
      <trkpt lat="44.3986" lon="4.39458">
        <ele>91.1</ele>
        <time>2024-02-28T15:13:14Z</time>
      </trkpt>
      <trkpt lat="44.3986" lon="4.39483">
        <ele>91</ele>
        <time>2024-02-28T15:13:20Z</time>
      </trkpt>
      <trkpt lat="44.39857" lon="4.39509">
        <ele>90.9</ele>
        <time>2024-02-28T15:13:26Z</time>
      </trkpt>
      <trkpt lat="44.39854" lon="4.39536">
        <ele>90.9</ele>
        <time>2024-02-28T15:13:32Z</time>
      </trkpt>
      <trkpt lat="44.39853" lon="4.39562">
        <ele>90.9</ele>
        <time>2024-02-28T15:13:38Z</time>
      </trkpt>
      <trkpt lat="44.3985" lon="4.39588">
        <ele>91</ele>
        <time>2024-02-28T15:13:44Z</time>
      </trkpt>
      <trkpt lat="44.39848" lon="4.39613">
        <ele>91.1</ele>
        <time>2024-02-28T15:13:50Z</time>
      </trkpt>
      <trkpt lat="44.39841" lon="4.39639">
        <ele>91.1</ele>
        <time>2024-02-28T15:13:56Z</time>
      </trkpt>
      <trkpt lat="44.39836" lon="4.39664">
        <ele>90.9</ele>
        <time>2024-02-28T15:14:02Z</time>
      </trkpt>
      <trkpt lat="44.39833" lon="4.3969">
        <ele>90.8</ele>
        <time>2024-02-28T15:14:09Z</time>
      </trkpt>
      <trkpt lat="44.39833" lon="4.39717">
        <ele>90.8</ele>
        <time>2024-02-28T15:14:16Z</time>
      </trkpt>
      <trkpt lat="44.39834" lon="4.39745">
        <ele>90.9</ele>
        <time>2024-02-28T15:14:23Z</time>
      </trkpt>
      <trkpt lat="44.39836" lon="4.39773">
        <ele>91</ele>
        <time>2024-02-28T15:14:30Z</time>
      </trkpt>
      <trkpt lat="44.39836" lon="4.39801">
        <ele>91</ele>
        <time>2024-02-28T15:14:37Z</time>
      </trkpt>
      <trkpt lat="44.39835" lon="4.39828">
        <ele>91</ele>
        <time>2024-02-28T15:14:44Z</time>
      </trkpt>
      <trkpt lat="44.39831" lon="4.39855">
        <ele>91</ele>
        <time>2024-02-28T15:14:51Z</time>
      </trkpt>
      <trkpt lat="44.39826" lon="4.3988">
        <ele>91.1</ele>
        <time>2024-02-28T15:14:57Z</time>
      </trkpt>
      <trkpt lat="44.39824" lon="4.39897">
        <ele>91.4</ele>
        <time>2024-02-28T15:15:04Z</time>
      </trkpt>
      <trkpt lat="44.39842" lon="4.39901">
        <ele>95.9</ele>
        <time>2024-02-28T15:15:13Z</time>
      </trkpt>
      <trkpt lat="44.39861" lon="4.39908">
        <ele>99.3</ele>
        <time>2024-02-28T15:15:22Z</time>
      </trkpt>
      <trkpt lat="44.3988" lon="4.39912">
        <ele>102.2</ele>
        <time>2024-02-28T15:15:31Z</time>
      </trkpt>
      <trkpt lat="44.39884" lon="4.3991">
        <ele>102.6</ele>
        <time>2024-02-28T15:15:34Z</time>
      </trkpt>
      <trkpt lat="44.39883" lon="4.39911">
        <ele>101.6</ele>
        <time>2024-02-28T15:15:37Z</time>
      </trkpt>
      <trkpt lat="44.39882" lon="4.39914">
        <ele>101.2</ele>
        <time>2024-02-28T15:15:39Z</time>
      </trkpt>
      <trkpt lat="44.39889" lon="4.39931">
        <ele>101.7</ele>
        <time>2024-02-28T15:15:51Z</time>
      </trkpt>
      <trkpt lat="44.39885" lon="4.39934">
        <ele>100.6</ele>
        <time>2024-02-28T15:16:15Z</time>
      </trkpt>
      <trkpt lat="44.39903" lon="4.3994">
        <ele>105.1</ele>
        <time>2024-02-28T15:16:29Z</time>
      </trkpt>
      <trkpt lat="44.39919" lon="4.39952">
        <ele>109.6</ele>
        <time>2024-02-28T15:16:51Z</time>
      </trkpt>
      <trkpt lat="44.39921" lon="4.39946">
        <ele>110.6</ele>
        <time>2024-02-28T15:16:59Z</time>
      </trkpt>
      <trkpt lat="44.39922" lon="4.39944">
        <ele>110.4</ele>
        <time>2024-02-28T15:17:03Z</time>
      </trkpt>
      <trkpt lat="44.39936" lon="4.39948">
        <ele>115.6</ele>
        <time>2024-02-28T15:17:25Z</time>
      </trkpt>
      <trkpt lat="44.39936" lon="4.39955">
        <ele>115.9</ele>
        <time>2024-02-28T15:17:30Z</time>
      </trkpt>
      <trkpt lat="44.3994" lon="4.39981">
        <ele>116.9</ele>
        <time>2024-02-28T15:17:42Z</time>
      </trkpt>
      <trkpt lat="44.39941" lon="4.39985">
        <ele>117</ele>
        <time>2024-02-28T15:17:45Z</time>
      </trkpt>
      <trkpt lat="44.39939" lon="4.39983">
        <ele>117.1</ele>
        <time>2024-02-28T15:17:51Z</time>
      </trkpt>
      <trkpt lat="44.39936" lon="4.39959">
        <ele>117.9</ele>
        <time>2024-02-28T15:17:59Z</time>
      </trkpt>
      <trkpt lat="44.39937" lon="4.39961">
        <ele>118</ele>
        <time>2024-02-28T15:19:18Z</time>
      </trkpt>
      <trkpt lat="44.39943" lon="4.39986">
        <ele>118.5</ele>
        <time>2024-02-28T15:19:29Z</time>
      </trkpt>
      <trkpt lat="44.39941" lon="4.39984">
        <ele>118.4</ele>
        <time>2024-02-28T15:19:32Z</time>
      </trkpt>
      <trkpt lat="44.39936" lon="4.39956">
        <ele>116.4</ele>
        <time>2024-02-28T15:19:40Z</time>
      </trkpt>
      <trkpt lat="44.3993" lon="4.39929">
        <ele>113.6</ele>
        <time>2024-02-28T15:19:47Z</time>
      </trkpt>
      <trkpt lat="44.39929" lon="4.39899">
        <ele>111.1</ele>
        <time>2024-02-28T15:19:53Z</time>
      </trkpt>
      <trkpt lat="44.39933" lon="4.39872">
        <ele>109.6</ele>
        <time>2024-02-28T15:19:58Z</time>
      </trkpt>
      <trkpt lat="44.39935" lon="4.39843">
        <ele>108.2</ele>
        <time>2024-02-28T15:20:04Z</time>
      </trkpt>
      <trkpt lat="44.39936" lon="4.39814">
        <ele>107.1</ele>
        <time>2024-02-28T15:20:10Z</time>
      </trkpt>
      <trkpt lat="44.39934" lon="4.39787">
        <ele>105.2</ele>
        <time>2024-02-28T15:20:17Z</time>
      </trkpt>
      <trkpt lat="44.39931" lon="4.39767">
        <ele>103.3</ele>
        <time>2024-02-28T15:20:26Z</time>
      </trkpt>
      <trkpt lat="44.39931" lon="4.39767">
        <ele>103.2</ele>
        <time>2024-02-28T15:20:29Z</time>
      </trkpt>
      <trkpt lat="44.39927" lon="4.39762">
        <ele>102.5</ele>
        <time>2024-02-28T15:20:37Z</time>
      </trkpt>
      <trkpt lat="44.39923" lon="4.39734">
        <ele>100.2</ele>
        <time>2024-02-28T15:20:46Z</time>
      </trkpt>
      <trkpt lat="44.39917" lon="4.39708">
        <ele>98.2</ele>
        <time>2024-02-28T15:20:52Z</time>
      </trkpt>
      <trkpt lat="44.39914" lon="4.39682">
        <ele>96.6</ele>
        <time>2024-02-28T15:20:58Z</time>
      </trkpt>
      <trkpt lat="44.39912" lon="4.39653">
        <ele>95.1</ele>
        <time>2024-02-28T15:21:04Z</time>
      </trkpt>
      <trkpt lat="44.39906" lon="4.39629">
        <ele>93.6</ele>
        <time>2024-02-28T15:21:10Z</time>
      </trkpt>
      <trkpt lat="44.39901" lon="4.39603">
        <ele>92.1</ele>
        <time>2024-02-28T15:21:16Z</time>
      </trkpt>
      <trkpt lat="44.399" lon="4.39589">
        <ele>91.6</ele>
        <time>2024-02-28T15:21:20Z</time>
      </trkpt>
      <trkpt lat="44.399" lon="4.39591">
        <ele>91.6</ele>
        <time>2024-02-28T15:21:23Z</time>
      </trkpt>
      <trkpt lat="44.39904" lon="4.39619">
        <ele>93</ele>
        <time>2024-02-28T15:21:29Z</time>
      </trkpt>
      <trkpt lat="44.39907" lon="4.39628">
        <ele>93.6</ele>
        <time>2024-02-28T15:21:31Z</time>
      </trkpt>
      <trkpt lat="44.3991" lon="4.39639">
        <ele>94.3</ele>
        <time>2024-02-28T15:21:33Z</time>
      </trkpt>
      <trkpt lat="44.39914" lon="4.39656">
        <ele>95.2</ele>
        <time>2024-02-28T15:21:36Z</time>
      </trkpt>
      <trkpt lat="44.39913" lon="4.39682">
        <ele>96.6</ele>
        <time>2024-02-28T15:21:40Z</time>
      </trkpt>
      <trkpt lat="44.39914" lon="4.39693">
        <ele>97.3</ele>
        <time>2024-02-28T15:21:41Z</time>
      </trkpt>
      <trkpt lat="44.39916" lon="4.39699">
        <ele>97.6</ele>
        <time>2024-02-28T15:21:43Z</time>
      </trkpt>
      <trkpt lat="44.39922" lon="4.39725">
        <ele>99.5</ele>
        <time>2024-02-28T15:21:48Z</time>
      </trkpt>
      <trkpt lat="44.39927" lon="4.39751">
        <ele>101.6</ele>
        <time>2024-02-28T15:21:53Z</time>
      </trkpt>
      <trkpt lat="44.39934" lon="4.39777">
        <ele>104</ele>
        <time>2024-02-28T15:21:59Z</time>
      </trkpt>
      <trkpt lat="44.39936" lon="4.39804">
        <ele>106.3</ele>
        <time>2024-02-28T15:22:04Z</time>
      </trkpt>
      <trkpt lat="44.39936" lon="4.39834">
        <ele>107.8</ele>
        <time>2024-02-28T15:22:09Z</time>
      </trkpt>
      <trkpt lat="44.39935" lon="4.39851">
        <ele>108.4</ele>
        <time>2024-02-28T15:22:12Z</time>
      </trkpt>
      <trkpt lat="44.39934" lon="4.39876">
        <ele>109.6</ele>
        <time>2024-02-28T15:22:18Z</time>
      </trkpt>
      <trkpt lat="44.39932" lon="4.39901">
        <ele>111</ele>
        <time>2024-02-28T15:22:25Z</time>
      </trkpt>
      <trkpt lat="44.39932" lon="4.39928">
        <ele>113</ele>
        <time>2024-02-28T15:22:33Z</time>
      </trkpt>
      <trkpt lat="44.39938" lon="4.39954">
        <ele>115.7</ele>
        <time>2024-02-28T15:22:43Z</time>
      </trkpt>
      <trkpt lat="44.39942" lon="4.3998">
        <ele>117.8</ele>
        <time>2024-02-28T15:22:51Z</time>
      </trkpt>
      <trkpt lat="44.39947" lon="4.40005">
        <ele>118.8</ele>
        <time>2024-02-28T15:22:59Z</time>
      </trkpt>
      <trkpt lat="44.39951" lon="4.40032">
        <ele>118.1</ele>
        <time>2024-02-28T15:23:06Z</time>
      </trkpt>
      <trkpt lat="44.39956" lon="4.40057">
        <ele>117.9</ele>
        <time>2024-02-28T15:23:13Z</time>
      </trkpt>
      <trkpt lat="44.39963" lon="4.4008">
        <ele>118.5</ele>
        <time>2024-02-28T15:23:19Z</time>
      </trkpt>
      <trkpt lat="44.39969" lon="4.40099">
        <ele>119.3</ele>
        <time>2024-02-28T15:23:27Z</time>
      </trkpt>
      <trkpt lat="44.39973" lon="4.40099">
        <ele>119.5</ele>
        <time>2024-02-28T15:23:36Z</time>
      </trkpt>
      <trkpt lat="44.39976" lon="4.40097">
        <ele>119.6</ele>
        <time>2024-02-28T15:23:38Z</time>
      </trkpt>
      <trkpt lat="44.39974" lon="4.401">
        <ele>119.4</ele>
        <time>2024-02-28T15:23:52Z</time>
      </trkpt>
      <trkpt lat="44.39967" lon="4.40128">
        <ele>117</ele>
        <time>2024-02-28T15:23:59Z</time>
      </trkpt>
      <trkpt lat="44.39963" lon="4.40157">
        <ele>114.4</ele>
        <time>2024-02-28T15:24:04Z</time>
      </trkpt>
      <trkpt lat="44.39964" lon="4.40183">
        <ele>113.4</ele>
        <time>2024-02-28T15:24:09Z</time>
      </trkpt>
      <trkpt lat="44.39962" lon="4.40211">
        <ele>111.9</ele>
        <time>2024-02-28T15:24:15Z</time>
      </trkpt>
      <trkpt lat="44.39955" lon="4.40237">
        <ele>110.3</ele>
        <time>2024-02-28T15:24:21Z</time>
      </trkpt>
      <trkpt lat="44.39946" lon="4.40262">
        <ele>108.9</ele>
        <time>2024-02-28T15:24:27Z</time>
      </trkpt>
      <trkpt lat="44.39943" lon="4.40288">
        <ele>107.6</ele>
        <time>2024-02-28T15:24:33Z</time>
      </trkpt>
      <trkpt lat="44.39944" lon="4.40315">
        <ele>106.5</ele>
        <time>2024-02-28T15:24:39Z</time>
      </trkpt>
      <trkpt lat="44.39938" lon="4.40338">
        <ele>105.8</ele>
        <time>2024-02-28T15:24:45Z</time>
      </trkpt>
      <trkpt lat="44.39936" lon="4.40346">
        <ele>105.6</ele>
        <time>2024-02-28T15:24:46Z</time>
      </trkpt>
      <trkpt lat="44.39937" lon="4.40349">
        <ele>105.6</ele>
        <time>2024-02-28T15:24:48Z</time>
      </trkpt>
      <trkpt lat="44.39936" lon="4.40352">
        <ele>105.5</ele>
        <time>2024-02-28T15:24:51Z</time>
      </trkpt>
      <trkpt lat="44.39937" lon="4.40344">
        <ele>105.4</ele>
        <time>2024-02-28T15:24:54Z</time>
      </trkpt>
      <trkpt lat="44.39938" lon="4.40339">
        <ele>105.3</ele>
        <time>2024-02-28T15:24:55Z</time>
      </trkpt>
      <trkpt lat="44.39947" lon="4.40317">
        <ele>105.8</ele>
        <time>2024-02-28T15:24:59Z</time>
      </trkpt>
      <trkpt lat="44.3995" lon="4.40291">
        <ele>106.7</ele>
        <time>2024-02-28T15:25:03Z</time>
      </trkpt>
      <trkpt lat="44.39952" lon="4.40266">
        <ele>107.9</ele>
        <time>2024-02-28T15:25:07Z</time>
      </trkpt>
      <trkpt lat="44.39953" lon="4.4026">
        <ele>108.3</ele>
        <time>2024-02-28T15:25:08Z</time>
      </trkpt>
      <trkpt lat="44.3996" lon="4.40231">
        <ele>110.1</ele>
        <time>2024-02-28T15:25:13Z</time>
      </trkpt>
      <trkpt lat="44.39965" lon="4.40202">
        <ele>112.2</ele>
        <time>2024-02-28T15:25:18Z</time>
      </trkpt>
      <trkpt lat="44.39966" lon="4.40178">
        <ele>113.6</ele>
        <time>2024-02-28T15:25:22Z</time>
      </trkpt>
      <trkpt lat="44.39964" lon="4.40151">
        <ele>114.9</ele>
        <time>2024-02-28T15:25:26Z</time>
      </trkpt>
      <trkpt lat="44.39963" lon="4.40145">
        <ele>115.6</ele>
        <time>2024-02-28T15:25:27Z</time>
      </trkpt>
      <trkpt lat="44.39964" lon="4.40118">
        <ele>118.6</ele>
        <time>2024-02-28T15:25:32Z</time>
      </trkpt>
      <trkpt lat="44.39966" lon="4.40103">
        <ele>119.8</ele>
        <time>2024-02-28T15:25:35Z</time>
      </trkpt>
      <trkpt lat="44.39971" lon="4.40095">
        <ele>121.2</ele>
        <time>2024-02-28T15:25:37Z</time>
      </trkpt>
      <trkpt lat="44.39976" lon="4.40089">
        <ele>122.6</ele>
        <time>2024-02-28T15:25:39Z</time>
      </trkpt>
      <trkpt lat="44.39986" lon="4.40066">
        <ele>126.6</ele>
        <time>2024-02-28T15:25:45Z</time>
      </trkpt>
      <trkpt lat="44.39993" lon="4.4004">
        <ele>131.2</ele>
        <time>2024-02-28T15:25:52Z</time>
      </trkpt>
      <trkpt lat="44.39995" lon="4.40021">
        <ele>134.8</ele>
        <time>2024-02-28T15:25:58Z</time>
      </trkpt>
      <trkpt lat="44.4" lon="4.40009">
        <ele>137.4</ele>
        <time>2024-02-28T15:26:07Z</time>
      </trkpt>
      <trkpt lat="44.40002" lon="4.4">
        <ele>139.1</ele>
        <time>2024-02-28T15:26:14Z</time>
      </trkpt>
      <trkpt lat="44.39999" lon="4.39975">
        <ele>143.5</ele>
        <time>2024-02-28T15:26:28Z</time>
      </trkpt>
      <trkpt lat="44.39998" lon="4.39962">
        <ele>145.5</ele>
        <time>2024-02-28T15:26:34Z</time>
      </trkpt>
      <trkpt lat="44.40011" lon="4.39978">
        <ele>149.5</ele>
        <time>2024-02-28T15:26:49Z</time>
      </trkpt>
      <trkpt lat="44.40012" lon="4.39977">
        <ele>149.8</ele>
        <time>2024-02-28T15:26:50Z</time>
      </trkpt>
      <trkpt lat="44.40012" lon="4.39976">
        <ele>149.9</ele>
        <time>2024-02-28T15:26:52Z</time>
      </trkpt>
      <trkpt lat="44.40013" lon="4.39975">
        <ele>150</ele>
        <time>2024-02-28T15:26:54Z</time>
      </trkpt>
      <trkpt lat="44.40013" lon="4.39974">
        <ele>150.1</ele>
        <time>2024-02-28T15:26:57Z</time>
      </trkpt>
      <trkpt lat="44.40013" lon="4.39974">
        <ele>150.2</ele>
        <time>2024-02-28T15:26:58Z</time>
      </trkpt>
      <trkpt lat="44.40011" lon="4.39968">
        <ele>151.3</ele>
        <time>2024-02-28T15:27:53Z</time>
      </trkpt>
      <trkpt lat="44.40016" lon="4.39943">
        <ele>154.2</ele>
        <time>2024-02-28T15:28:05Z</time>
      </trkpt>
      <trkpt lat="44.40006" lon="4.39921">
        <ele>155.1</ele>
        <time>2024-02-28T15:28:12Z</time>
      </trkpt>
      <trkpt lat="44.40001" lon="4.39894">
        <ele>156.8</ele>
        <time>2024-02-28T15:28:20Z</time>
      </trkpt>
      <trkpt lat="44.4001" lon="4.39878">
        <ele>158.1</ele>
        <time>2024-02-28T15:28:26Z</time>
      </trkpt>
      <trkpt lat="44.40027" lon="4.39878">
        <ele>158.7</ele>
        <time>2024-02-28T15:28:35Z</time>
      </trkpt>
      <trkpt lat="44.40026" lon="4.39878">
        <ele>158.8</ele>
        <time>2024-02-28T15:28:38Z</time>
      </trkpt>
      <trkpt lat="44.40023" lon="4.39877">
        <ele>158.9</ele>
        <time>2024-02-28T15:28:41Z</time>
      </trkpt>
      <trkpt lat="44.40014" lon="4.39885">
        <ele>159.2</ele>
        <time>2024-02-28T15:28:48Z</time>
      </trkpt>
      <trkpt lat="44.40015" lon="4.39902">
        <ele>159.3</ele>
        <time>2024-02-28T15:28:54Z</time>
      </trkpt>
      <trkpt lat="44.40024" lon="4.39927">
        <ele>159.1</ele>
        <time>2024-02-28T15:29:01Z</time>
      </trkpt>
      <trkpt lat="44.40037" lon="4.39948">
        <ele>158.5</ele>
        <time>2024-02-28T15:29:09Z</time>
      </trkpt>
      <trkpt lat="44.40041" lon="4.39951">
        <ele>158.3</ele>
        <time>2024-02-28T15:29:12Z</time>
      </trkpt>
      <trkpt lat="44.40059" lon="4.39961">
        <ele>158.9</ele>
        <time>2024-02-28T15:29:21Z</time>
      </trkpt>
      <trkpt lat="44.40072" lon="4.39976">
        <ele>160.9</ele>
        <time>2024-02-28T15:29:29Z</time>
      </trkpt>
      <trkpt lat="44.4008" lon="4.39999">
        <ele>161.9</ele>
        <time>2024-02-28T15:29:39Z</time>
      </trkpt>
      <trkpt lat="44.40081" lon="4.4">
        <ele>161.8</ele>
        <time>2024-02-28T15:29:42Z</time>
      </trkpt>
      <trkpt lat="44.40083" lon="4.4">
        <ele>161.7</ele>
        <time>2024-02-28T15:29:44Z</time>
      </trkpt>
      <trkpt lat="44.40093" lon="4.40004">
        <ele>160.7</ele>
        <time>2024-02-28T15:29:56Z</time>
      </trkpt>
      <trkpt lat="44.40097" lon="4.40004">
        <ele>160.3</ele>
        <time>2024-02-28T15:30:01Z</time>
      </trkpt>
      <trkpt lat="44.40099" lon="4.40002">
        <ele>160</ele>
        <time>2024-02-28T15:30:03Z</time>
      </trkpt>
      <trkpt lat="44.40106" lon="4.39993">
        <ele>159.2</ele>
        <time>2024-02-28T15:30:08Z</time>
      </trkpt>
      <trkpt lat="44.40112" lon="4.39999">
        <ele>158.8</ele>
        <time>2024-02-28T15:30:12Z</time>
      </trkpt>
      <trkpt lat="44.4011" lon="4.40021">
        <ele>159.4</ele>
        <time>2024-02-28T15:30:22Z</time>
      </trkpt>
      <trkpt lat="44.40094" lon="4.40006">
        <ele>159.5</ele>
        <time>2024-02-28T15:30:33Z</time>
      </trkpt>
      <trkpt lat="44.40081" lon="4.39988">
        <ele>161.7</ele>
        <time>2024-02-28T15:30:41Z</time>
      </trkpt>
      <trkpt lat="44.4008" lon="4.39984">
        <ele>161.9</ele>
        <time>2024-02-28T15:30:42Z</time>
      </trkpt>
      <trkpt lat="44.40073" lon="4.39968">
        <ele>161.4</ele>
        <time>2024-02-28T15:30:51Z</time>
      </trkpt>
      <trkpt lat="44.40073" lon="4.39969">
        <ele>161.5</ele>
        <time>2024-02-28T15:31:33Z</time>
      </trkpt>
      <trkpt lat="44.40075" lon="4.39972">
        <ele>161.8</ele>
        <time>2024-02-28T15:31:35Z</time>
      </trkpt>
      <trkpt lat="44.40087" lon="4.39994">
        <ele>160.8</ele>
        <time>2024-02-28T15:31:44Z</time>
      </trkpt>
      <trkpt lat="44.401" lon="4.40012">
        <ele>158.9</ele>
        <time>2024-02-28T15:31:52Z</time>
      </trkpt>
      <trkpt lat="44.40112" lon="4.40024">
        <ele>159.4</ele>
        <time>2024-02-28T15:32:02Z</time>
      </trkpt>
      <trkpt lat="44.40111" lon="4.40025">
        <ele>159.5</ele>
        <time>2024-02-28T15:32:14Z</time>
      </trkpt>
      <trkpt lat="44.40111" lon="4.40026">
        <ele>159.5</ele>
        <time>2024-02-28T15:32:16Z</time>
      </trkpt>
      <trkpt lat="44.40111" lon="4.40027">
        <ele>159.6</ele>
        <time>2024-02-28T15:32:17Z</time>
      </trkpt>
      <trkpt lat="44.4012" lon="4.4005">
        <ele>162.4</ele>
        <time>2024-02-28T15:32:24Z</time>
      </trkpt>
      <trkpt lat="44.40135" lon="4.40072">
        <ele>166.7</ele>
        <time>2024-02-28T15:32:30Z</time>
      </trkpt>
      <trkpt lat="44.40149" lon="4.40094">
        <ele>170.7</ele>
        <time>2024-02-28T15:32:36Z</time>
      </trkpt>
      <trkpt lat="44.40159" lon="4.40116">
        <ele>174.5</ele>
        <time>2024-02-28T15:32:41Z</time>
      </trkpt>
      <trkpt lat="44.40172" lon="4.40136">
        <ele>177.9</ele>
        <time>2024-02-28T15:32:46Z</time>
      </trkpt>
      <trkpt lat="44.40184" lon="4.40158">
        <ele>181.2</ele>
        <time>2024-02-28T15:32:51Z</time>
      </trkpt>
      <trkpt lat="44.40193" lon="4.40182">
        <ele>182.2</ele>
        <time>2024-02-28T15:32:56Z</time>
      </trkpt>
      <trkpt lat="44.40203" lon="4.40208">
        <ele>181.8</ele>
        <time>2024-02-28T15:33:02Z</time>
      </trkpt>
      <trkpt lat="44.40212" lon="4.4023">
        <ele>181.6</ele>
        <time>2024-02-28T15:33:07Z</time>
      </trkpt>
      <trkpt lat="44.40214" lon="4.40235">
        <ele>181.6</ele>
        <time>2024-02-28T15:33:08Z</time>
      </trkpt>
      <trkpt lat="44.40221" lon="4.40258">
        <ele>181.6</ele>
        <time>2024-02-28T15:33:12Z</time>
      </trkpt>
      <trkpt lat="44.40227" lon="4.40286">
        <ele>181.5</ele>
        <time>2024-02-28T15:33:16Z</time>
      </trkpt>
      <trkpt lat="44.40236" lon="4.40312">
        <ele>181.4</ele>
        <time>2024-02-28T15:33:20Z</time>
      </trkpt>
      <trkpt lat="44.40245" lon="4.40336">
        <ele>181.5</ele>
        <time>2024-02-28T15:33:24Z</time>
      </trkpt>
      <trkpt lat="44.40254" lon="4.4036">
        <ele>181.4</ele>
        <time>2024-02-28T15:33:28Z</time>
      </trkpt>
      <trkpt lat="44.40264" lon="4.40385">
        <ele>181.4</ele>
        <time>2024-02-28T15:33:32Z</time>
      </trkpt>
      <trkpt lat="44.40272" lon="4.40411">
        <ele>181.7</ele>
        <time>2024-02-28T15:33:36Z</time>
      </trkpt>
      <trkpt lat="44.40278" lon="4.40436">
        <ele>182.1</ele>
        <time>2024-02-28T15:33:40Z</time>
      </trkpt>
      <trkpt lat="44.40284" lon="4.40462">
        <ele>181.9</ele>
        <time>2024-02-28T15:33:44Z</time>
      </trkpt>
      <trkpt lat="44.40289" lon="4.40489">
        <ele>181.4</ele>
        <time>2024-02-28T15:33:48Z</time>
      </trkpt>
      <trkpt lat="44.40293" lon="4.40517">
        <ele>180.6</ele>
        <time>2024-02-28T15:33:52Z</time>
      </trkpt>
      <trkpt lat="44.40302" lon="4.4054">
        <ele>179.6</ele>
        <time>2024-02-28T15:33:56Z</time>
      </trkpt>
      <trkpt lat="44.40314" lon="4.40565">
        <ele>178.1</ele>
        <time>2024-02-28T15:34:00Z</time>
      </trkpt>
      <trkpt lat="44.40316" lon="4.40572">
        <ele>177.7</ele>
        <time>2024-02-28T15:34:01Z</time>
      </trkpt>
      <trkpt lat="44.40326" lon="4.40598">
        <ele>175.2</ele>
        <time>2024-02-28T15:34:05Z</time>
      </trkpt>
      <trkpt lat="44.40335" lon="4.40623">
        <ele>171.7</ele>
        <time>2024-02-28T15:34:09Z</time>
      </trkpt>
      <trkpt lat="44.40335" lon="4.40629">
        <ele>170.9</ele>
        <time>2024-02-28T15:34:10Z</time>
      </trkpt>
      <trkpt lat="44.40335" lon="4.40635">
        <ele>170</ele>
        <time>2024-02-28T15:34:11Z</time>
      </trkpt>
      <trkpt lat="44.40332" lon="4.40645">
        <ele>168.4</ele>
        <time>2024-02-28T15:34:13Z</time>
      </trkpt>
      <trkpt lat="44.40328" lon="4.40669">
        <ele>164.7</ele>
        <time>2024-02-28T15:34:18Z</time>
      </trkpt>
      <trkpt lat="44.40332" lon="4.40695">
        <ele>161.4</ele>
        <time>2024-02-28T15:34:23Z</time>
      </trkpt>
      <trkpt lat="44.40338" lon="4.40721">
        <ele>158.2</ele>
        <time>2024-02-28T15:34:28Z</time>
      </trkpt>
      <trkpt lat="44.40344" lon="4.40748">
        <ele>155.3</ele>
        <time>2024-02-28T15:34:33Z</time>
      </trkpt>
      <trkpt lat="44.40342" lon="4.40775">
        <ele>152.3</ele>
        <time>2024-02-28T15:34:38Z</time>
      </trkpt>
      <trkpt lat="44.40347" lon="4.40802">
        <ele>148.4</ele>
        <time>2024-02-28T15:34:43Z</time>
      </trkpt>
      <trkpt lat="44.40349" lon="4.4083">
        <ele>144.9</ele>
        <time>2024-02-28T15:34:48Z</time>
      </trkpt>
      <trkpt lat="44.40347" lon="4.40838">
        <ele>144.8</ele>
        <time>2024-02-28T15:34:49Z</time>
      </trkpt>
      <trkpt lat="44.40343" lon="4.40839">
        <ele>144.8</ele>
        <time>2024-02-28T15:34:51Z</time>
      </trkpt>
      <trkpt lat="44.40324" lon="4.40842">
        <ele>144.8</ele>
        <time>2024-02-28T15:34:56Z</time>
      </trkpt>
      <trkpt lat="44.40312" lon="4.40837">
        <ele>144.9</ele>
        <time>2024-02-28T15:34:59Z</time>
      </trkpt>
      <trkpt lat="44.40304" lon="4.40823">
        <ele>144.9</ele>
        <time>2024-02-28T15:35:02Z</time>
      </trkpt>
      <trkpt lat="44.40291" lon="4.40804">
        <ele>144.3</ele>
        <time>2024-02-28T15:35:06Z</time>
      </trkpt>
      <trkpt lat="44.40277" lon="4.40784">
        <ele>143.4</ele>
        <time>2024-02-28T15:35:10Z</time>
      </trkpt>
      <trkpt lat="44.40264" lon="4.40765">
        <ele>142.2</ele>
        <time>2024-02-28T15:35:14Z</time>
      </trkpt>
      <trkpt lat="44.40249" lon="4.40747">
        <ele>140.4</ele>
        <time>2024-02-28T15:35:18Z</time>
      </trkpt>
      <trkpt lat="44.40233" lon="4.40728">
        <ele>138.3</ele>
        <time>2024-02-28T15:35:22Z</time>
      </trkpt>
      <trkpt lat="44.4022" lon="4.40709">
        <ele>136.5</ele>
        <time>2024-02-28T15:35:26Z</time>
      </trkpt>
      <trkpt lat="44.40204" lon="4.40689">
        <ele>134.6</ele>
        <time>2024-02-28T15:35:31Z</time>
      </trkpt>
      <trkpt lat="44.4019" lon="4.40667">
        <ele>132.9</ele>
        <time>2024-02-28T15:35:35Z</time>
      </trkpt>
      <trkpt lat="44.40176" lon="4.40644">
        <ele>131.8</ele>
        <time>2024-02-28T15:35:39Z</time>
      </trkpt>
      <trkpt lat="44.40174" lon="4.40638">
        <ele>131.6</ele>
        <time>2024-02-28T15:35:40Z</time>
      </trkpt>
      <trkpt lat="44.4017" lon="4.40624">
        <ele>131.4</ele>
        <time>2024-02-28T15:35:42Z</time>
      </trkpt>
      <trkpt lat="44.40163" lon="4.40594">
        <ele>131.1</ele>
        <time>2024-02-28T15:35:46Z</time>
      </trkpt>
      <trkpt lat="44.40158" lon="4.40573">
        <ele>130.8</ele>
        <time>2024-02-28T15:35:49Z</time>
      </trkpt>
      <trkpt lat="44.40146" lon="4.40546">
        <ele>130.1</ele>
        <time>2024-02-28T15:35:53Z</time>
      </trkpt>
      <trkpt lat="44.40137" lon="4.4052">
        <ele>129.7</ele>
        <time>2024-02-28T15:35:57Z</time>
      </trkpt>
      <trkpt lat="44.40128" lon="4.40495">
        <ele>129.1</ele>
        <time>2024-02-28T15:36:01Z</time>
      </trkpt>
      <trkpt lat="44.4012" lon="4.40479">
        <ele>128.6</ele>
        <time>2024-02-28T15:36:04Z</time>
      </trkpt>
      <trkpt lat="44.40116" lon="4.40469">
        <ele>128.3</ele>
        <time>2024-02-28T15:36:06Z</time>
      </trkpt>
      <trkpt lat="44.40113" lon="4.40461">
        <ele>127.9</ele>
        <time>2024-02-28T15:36:08Z</time>
      </trkpt>
      <trkpt lat="44.40104" lon="4.40444">
        <ele>126.6</ele>
        <time>2024-02-28T15:36:14Z</time>
      </trkpt>
      <trkpt lat="44.40087" lon="4.40455">
        <ele>123.5</ele>
        <time>2024-02-28T15:36:20Z</time>
      </trkpt>
      <trkpt lat="44.40071" lon="4.40469">
        <ele>120.1</ele>
        <time>2024-02-28T15:36:26Z</time>
      </trkpt>
      <trkpt lat="44.4006" lon="4.40475">
        <ele>118.2</ele>
        <time>2024-02-28T15:36:30Z</time>
      </trkpt>
      <trkpt lat="44.40046" lon="4.40453">
        <ele>115.8</ele>
        <time>2024-02-28T15:36:36Z</time>
      </trkpt>
      <trkpt lat="44.40037" lon="4.40427">
        <ele>114.7</ele>
        <time>2024-02-28T15:36:42Z</time>
      </trkpt>
      <trkpt lat="44.40026" lon="4.40401">
        <ele>114</ele>
        <time>2024-02-28T15:36:48Z</time>
      </trkpt>
      <trkpt lat="44.40014" lon="4.40382">
        <ele>113</ele>
        <time>2024-02-28T15:36:53Z</time>
      </trkpt>
      <trkpt lat="44.4" lon="4.40365">
        <ele>112.1</ele>
        <time>2024-02-28T15:36:58Z</time>
      </trkpt>
      <trkpt lat="44.39982" lon="4.40358">
        <ele>110.7</ele>
        <time>2024-02-28T15:37:04Z</time>
      </trkpt>
      <trkpt lat="44.39962" lon="4.40367">
        <ele>108.6</ele>
        <time>2024-02-28T15:37:10Z</time>
      </trkpt>
      <trkpt lat="44.39943" lon="4.40367">
        <ele>106.7</ele>
        <time>2024-02-28T15:37:15Z</time>
      </trkpt>
      <trkpt lat="44.39927" lon="4.40357">
        <ele>105.2</ele>
        <time>2024-02-28T15:37:21Z</time>
      </trkpt>
      <trkpt lat="44.39922" lon="4.40363">
        <ele>105.2</ele>
        <time>2024-02-28T15:37:22Z</time>
      </trkpt>
      <trkpt lat="44.3991" lon="4.40382">
        <ele>105.4</ele>
        <time>2024-02-28T15:37:33Z</time>
      </trkpt>
      <trkpt lat="44.39904" lon="4.40401">
        <ele>105.8</ele>
        <time>2024-02-28T15:37:38Z</time>
      </trkpt>
      <trkpt lat="44.39897" lon="4.40415">
        <ele>106.2</ele>
        <time>2024-02-28T15:37:52Z</time>
      </trkpt>
      <trkpt lat="44.39887" lon="4.4044">
        <ele>106.7</ele>
        <time>2024-02-28T15:37:59Z</time>
      </trkpt>
      <trkpt lat="44.39883" lon="4.40459">
        <ele>107</ele>
        <time>2024-02-28T15:38:05Z</time>
      </trkpt>
      <trkpt lat="44.39883" lon="4.40466">
        <ele>107.2</ele>
        <time>2024-02-28T15:38:24Z</time>
      </trkpt>
      <trkpt lat="44.39865" lon="4.40478">
        <ele>108.4</ele>
        <time>2024-02-28T15:38:32Z</time>
      </trkpt>
      <trkpt lat="44.3985" lon="4.40494">
        <ele>109.5</ele>
        <time>2024-02-28T15:38:38Z</time>
      </trkpt>
      <trkpt lat="44.39847" lon="4.40502">
        <ele>109.7</ele>
        <time>2024-02-28T15:38:39Z</time>
      </trkpt>
      <trkpt lat="44.39843" lon="4.40529">
        <ele>110</ele>
        <time>2024-02-28T15:38:46Z</time>
      </trkpt>
      <trkpt lat="44.39839" lon="4.40556">
        <ele>110.1</ele>
        <time>2024-02-28T15:38:52Z</time>
      </trkpt>
      <trkpt lat="44.39832" lon="4.40585">
        <ele>110.2</ele>
        <time>2024-02-28T15:38:58Z</time>
      </trkpt>
      <trkpt lat="44.39822" lon="4.4061">
        <ele>110.2</ele>
        <time>2024-02-28T15:39:03Z</time>
      </trkpt>
      <trkpt lat="44.39812" lon="4.40634">
        <ele>109.5</ele>
        <time>2024-02-28T15:39:08Z</time>
      </trkpt>
      <trkpt lat="44.39802" lon="4.40658">
        <ele>108.5</ele>
        <time>2024-02-28T15:39:13Z</time>
      </trkpt>
      <trkpt lat="44.39797" lon="4.40683">
        <ele>107.4</ele>
        <time>2024-02-28T15:39:18Z</time>
      </trkpt>
      <trkpt lat="44.39789" lon="4.40708">
        <ele>106</ele>
        <time>2024-02-28T15:39:23Z</time>
      </trkpt>
      <trkpt lat="44.39782" lon="4.40733">
        <ele>104</ele>
        <time>2024-02-28T15:39:29Z</time>
      </trkpt>
      <trkpt lat="44.39782" lon="4.40759">
        <ele>102.3</ele>
        <time>2024-02-28T15:39:35Z</time>
      </trkpt>
      <trkpt lat="44.39779" lon="4.40787">
        <ele>101.2</ele>
        <time>2024-02-28T15:39:41Z</time>
      </trkpt>
      <trkpt lat="44.39779" lon="4.40812">
        <ele>100.4</ele>
        <time>2024-02-28T15:39:47Z</time>
      </trkpt>
      <trkpt lat="44.3978" lon="4.40839">
        <ele>98.3</ele>
        <time>2024-02-28T15:39:53Z</time>
      </trkpt>
      <trkpt lat="44.39778" lon="4.40866">
        <ele>96.7</ele>
        <time>2024-02-28T15:39:58Z</time>
      </trkpt>
      <trkpt lat="44.39774" lon="4.40895">
        <ele>96.1</ele>
        <time>2024-02-28T15:40:04Z</time>
      </trkpt>
      <trkpt lat="44.39769" lon="4.40923">
        <ele>95.8</ele>
        <time>2024-02-28T15:40:10Z</time>
      </trkpt>
      <trkpt lat="44.39765" lon="4.40949">
        <ele>95.6</ele>
        <time>2024-02-28T15:40:15Z</time>
      </trkpt>
      <trkpt lat="44.39763" lon="4.40975">
        <ele>95.5</ele>
        <time>2024-02-28T15:40:21Z</time>
      </trkpt>
      <trkpt lat="44.3976" lon="4.41003">
        <ele>95.4</ele>
        <time>2024-02-28T15:40:27Z</time>
      </trkpt>
      <trkpt lat="44.39753" lon="4.41027">
        <ele>95.2</ele>
        <time>2024-02-28T15:40:32Z</time>
      </trkpt>
      <trkpt lat="44.39742" lon="4.41053">
        <ele>94.9</ele>
        <time>2024-02-28T15:40:38Z</time>
      </trkpt>
      <trkpt lat="44.39733" lon="4.4108">
        <ele>94.6</ele>
        <time>2024-02-28T15:40:44Z</time>
      </trkpt>
      <trkpt lat="44.39726" lon="4.41109">
        <ele>94.4</ele>
        <time>2024-02-28T15:40:50Z</time>
      </trkpt>
      <trkpt lat="44.39715" lon="4.41129">
        <ele>94.3</ele>
        <time>2024-02-28T15:40:55Z</time>
      </trkpt>
      <trkpt lat="44.39707" lon="4.41152">
        <ele>94.1</ele>
        <time>2024-02-28T15:41:01Z</time>
      </trkpt>
      <trkpt lat="44.39705" lon="4.4118">
        <ele>94.2</ele>
        <time>2024-02-28T15:41:08Z</time>
      </trkpt>
      <trkpt lat="44.39702" lon="4.41205">
        <ele>94.1</ele>
        <time>2024-02-28T15:41:14Z</time>
      </trkpt>
      <trkpt lat="44.39698" lon="4.41232">
        <ele>93.9</ele>
        <time>2024-02-28T15:41:20Z</time>
      </trkpt>
      <trkpt lat="44.39696" lon="4.4126">
        <ele>93.6</ele>
        <time>2024-02-28T15:41:26Z</time>
      </trkpt>
      <trkpt lat="44.39692" lon="4.41289">
        <ele>92.9</ele>
        <time>2024-02-28T15:41:32Z</time>
      </trkpt>
      <trkpt lat="44.39688" lon="4.41316">
        <ele>92.3</ele>
        <time>2024-02-28T15:41:38Z</time>
      </trkpt>
      <trkpt lat="44.39696" lon="4.41339">
        <ele>92</ele>
        <time>2024-02-28T15:41:47Z</time>
      </trkpt>
      <trkpt lat="44.39693" lon="4.41366">
        <ele>91</ele>
        <time>2024-02-28T15:41:54Z</time>
      </trkpt>
      <trkpt lat="44.397" lon="4.41388">
        <ele>91.7</ele>
        <time>2024-02-28T15:42:05Z</time>
      </trkpt>
      <trkpt lat="44.39702" lon="4.41393">
        <ele>91.9</ele>
        <time>2024-02-28T15:42:08Z</time>
      </trkpt>
      <trkpt lat="44.39704" lon="4.41422">
        <ele>92.4</ele>
        <time>2024-02-28T15:42:16Z</time>
      </trkpt>
      <trkpt lat="44.39708" lon="4.41448">
        <ele>92.5</ele>
        <time>2024-02-28T15:42:22Z</time>
      </trkpt>
      <trkpt lat="44.39712" lon="4.41473">
        <ele>92.5</ele>
        <time>2024-02-28T15:42:28Z</time>
      </trkpt>
      <trkpt lat="44.39712" lon="4.41501">
        <ele>91.9</ele>
        <time>2024-02-28T15:42:34Z</time>
      </trkpt>
      <trkpt lat="44.39712" lon="4.41526">
        <ele>91.8</ele>
        <time>2024-02-28T15:42:40Z</time>
      </trkpt>
      <trkpt lat="44.39706" lon="4.41553">
        <ele>91.4</ele>
        <time>2024-02-28T15:42:47Z</time>
      </trkpt>
      <trkpt lat="44.3971" lon="4.41579">
        <ele>91.4</ele>
        <time>2024-02-28T15:42:53Z</time>
      </trkpt>
      <trkpt lat="44.39714" lon="4.41604">
        <ele>91.7</ele>
        <time>2024-02-28T15:43:00Z</time>
      </trkpt>
      <trkpt lat="44.39723" lon="4.41627">
        <ele>92.1</ele>
        <time>2024-02-28T15:43:07Z</time>
      </trkpt>
      <trkpt lat="44.39726" lon="4.41631">
        <ele>92.2</ele>
        <time>2024-02-28T15:43:08Z</time>
      </trkpt>
      <trkpt lat="44.39738" lon="4.4165">
        <ele>92.7</ele>
        <time>2024-02-28T15:43:16Z</time>
      </trkpt>
      <trkpt lat="44.39749" lon="4.41674">
        <ele>92.8</ele>
        <time>2024-02-28T15:43:23Z</time>
      </trkpt>
      <trkpt lat="44.39766" lon="4.41686">
        <ele>93.4</ele>
        <time>2024-02-28T15:43:31Z</time>
      </trkpt>
      <trkpt lat="44.39786" lon="4.41698">
        <ele>94.1</ele>
        <time>2024-02-28T15:43:38Z</time>
      </trkpt>
      <trkpt lat="44.39803" lon="4.4171">
        <ele>94.2</ele>
        <time>2024-02-28T15:43:44Z</time>
      </trkpt>
      <trkpt lat="44.39821" lon="4.41716">
        <ele>94.4</ele>
        <time>2024-02-28T15:43:52Z</time>
      </trkpt>
      <trkpt lat="44.39841" lon="4.41715">
        <ele>94.4</ele>
        <time>2024-02-28T15:43:59Z</time>
      </trkpt>
      <trkpt lat="44.39859" lon="4.41709">
        <ele>94.3</ele>
        <time>2024-02-28T15:44:06Z</time>
      </trkpt>
      <trkpt lat="44.39878" lon="4.41707">
        <ele>94.1</ele>
        <time>2024-02-28T15:44:12Z</time>
      </trkpt>
      <trkpt lat="44.39896" lon="4.41703">
        <ele>93.9</ele>
        <time>2024-02-28T15:44:18Z</time>
      </trkpt>
      <trkpt lat="44.39909" lon="4.41684">
        <ele>94.2</ele>
        <time>2024-02-28T15:44:25Z</time>
      </trkpt>
      <trkpt lat="44.39922" lon="4.41664">
        <ele>94.8</ele>
        <time>2024-02-28T15:44:32Z</time>
      </trkpt>
      <trkpt lat="44.39937" lon="4.41643">
        <ele>95.6</ele>
        <time>2024-02-28T15:44:39Z</time>
      </trkpt>
      <trkpt lat="44.39951" lon="4.41626">
        <ele>96.6</ele>
        <time>2024-02-28T15:44:45Z</time>
      </trkpt>
      <trkpt lat="44.39962" lon="4.41603">
        <ele>98.2</ele>
        <time>2024-02-28T15:44:52Z</time>
      </trkpt>
      <trkpt lat="44.39975" lon="4.41583">
        <ele>99.5</ele>
        <time>2024-02-28T15:44:59Z</time>
      </trkpt>
      <trkpt lat="44.39987" lon="4.41565">
        <ele>99.9</ele>
        <time>2024-02-28T15:45:05Z</time>
      </trkpt>
      <trkpt lat="44.40008" lon="4.41561">
        <ele>99.2</ele>
        <time>2024-02-28T15:45:11Z</time>
      </trkpt>
      <trkpt lat="44.40027" lon="4.41557">
        <ele>98.3</ele>
        <time>2024-02-28T15:45:16Z</time>
      </trkpt>
      <trkpt lat="44.40033" lon="4.41554">
        <ele>98.1</ele>
        <time>2024-02-28T15:45:18Z</time>
      </trkpt>
      <trkpt lat="44.40051" lon="4.41548">
        <ele>97.8</ele>
        <time>2024-02-28T15:45:22Z</time>
      </trkpt>
      <trkpt lat="44.4007" lon="4.41543">
        <ele>97.7</ele>
        <time>2024-02-28T15:45:26Z</time>
      </trkpt>
      <trkpt lat="44.40075" lon="4.41542">
        <ele>97.6</ele>
        <time>2024-02-28T15:45:27Z</time>
      </trkpt>
      <trkpt lat="44.40097" lon="4.41537">
        <ele>97.5</ele>
        <time>2024-02-28T15:45:31Z</time>
      </trkpt>
      <trkpt lat="44.40119" lon="4.41528">
        <ele>97.4</ele>
        <time>2024-02-28T15:45:35Z</time>
      </trkpt>
      <trkpt lat="44.4014" lon="4.41519">
        <ele>97.4</ele>
        <time>2024-02-28T15:45:39Z</time>
      </trkpt>
      <trkpt lat="44.4016" lon="4.4151">
        <ele>97.5</ele>
        <time>2024-02-28T15:45:43Z</time>
      </trkpt>
      <trkpt lat="44.40178" lon="4.41503">
        <ele>97.5</ele>
        <time>2024-02-28T15:45:47Z</time>
      </trkpt>
      <trkpt lat="44.40196" lon="4.41493">
        <ele>97.4</ele>
        <time>2024-02-28T15:45:51Z</time>
      </trkpt>
      <trkpt lat="44.40201" lon="4.41492">
        <ele>97.4</ele>
        <time>2024-02-28T15:45:52Z</time>
      </trkpt>
      <trkpt lat="44.40214" lon="4.41495">
        <ele>97.1</ele>
        <time>2024-02-28T15:45:55Z</time>
      </trkpt>
      <trkpt lat="44.40223" lon="4.41492">
        <ele>97</ele>
        <time>2024-02-28T15:45:57Z</time>
      </trkpt>
      <trkpt lat="44.40232" lon="4.41487">
        <ele>96.8</ele>
        <time>2024-02-28T15:45:59Z</time>
      </trkpt>
      <trkpt lat="44.40246" lon="4.41488">
        <ele>96.6</ele>
        <time>2024-02-28T15:46:03Z</time>
      </trkpt>
      <trkpt lat="44.40256" lon="4.41485">
        <ele>96.5</ele>
        <time>2024-02-28T15:46:05Z</time>
      </trkpt>
      <trkpt lat="44.40275" lon="4.41475">
        <ele>96.4</ele>
        <time>2024-02-28T15:46:09Z</time>
      </trkpt>
      <trkpt lat="44.40288" lon="4.41468">
        <ele>96.3</ele>
        <time>2024-02-28T15:46:12Z</time>
      </trkpt>
      <trkpt lat="44.40306" lon="4.41458">
        <ele>96.2</ele>
        <time>2024-02-28T15:46:16Z</time>
      </trkpt>
      <trkpt lat="44.40324" lon="4.41452">
        <ele>96.1</ele>
        <time>2024-02-28T15:46:20Z</time>
      </trkpt>
      <trkpt lat="44.40343" lon="4.41434">
        <ele>96.5</ele>
        <time>2024-02-28T15:46:25Z</time>
      </trkpt>
      <trkpt lat="44.40359" lon="4.4142">
        <ele>97.9</ele>
        <time>2024-02-28T15:46:30Z</time>
      </trkpt>
      <trkpt lat="44.40364" lon="4.41413">
        <ele>98.6</ele>
        <time>2024-02-28T15:46:31Z</time>
      </trkpt>
      <trkpt lat="44.40366" lon="4.41409">
        <ele>98.9</ele>
        <time>2024-02-28T15:46:33Z</time>
      </trkpt>
      <trkpt lat="44.40363" lon="4.41405">
        <ele>99.3</ele>
        <time>2024-02-28T15:46:35Z</time>
      </trkpt>
      <trkpt lat="44.40358" lon="4.41408">
        <ele>99.9</ele>
        <time>2024-02-28T15:46:37Z</time>
      </trkpt>
      <trkpt lat="44.40346" lon="4.41412">
        <ele>101.2</ele>
        <time>2024-02-28T15:46:41Z</time>
      </trkpt>
      <trkpt lat="44.40359" lon="4.41391">
        <ele>102.6</ele>
        <time>2024-02-28T15:46:48Z</time>
      </trkpt>
      <trkpt lat="44.40373" lon="4.41374">
        <ele>103.5</ele>
        <time>2024-02-28T15:46:53Z</time>
      </trkpt>
      <trkpt lat="44.40381" lon="4.41365">
        <ele>104</ele>
        <time>2024-02-28T15:47:00Z</time>
      </trkpt>
      <trkpt lat="44.40384" lon="4.4139">
        <ele>104.2</ele>
        <time>2024-02-28T15:47:10Z</time>
      </trkpt>
      <trkpt lat="44.40394" lon="4.41412">
        <ele>103.9</ele>
        <time>2024-02-28T15:47:17Z</time>
      </trkpt>
      <trkpt lat="44.40404" lon="4.41433">
        <ele>103.8</ele>
        <time>2024-02-28T15:47:23Z</time>
      </trkpt>
      <trkpt lat="44.40414" lon="4.41456">
        <ele>103.8</ele>
        <time>2024-02-28T15:47:29Z</time>
      </trkpt>
      <trkpt lat="44.40424" lon="4.41479">
        <ele>103.9</ele>
        <time>2024-02-28T15:47:35Z</time>
      </trkpt>
      <trkpt lat="44.4043" lon="4.41505">
        <ele>104</ele>
        <time>2024-02-28T15:47:42Z</time>
      </trkpt>
      <trkpt lat="44.40433" lon="4.41531">
        <ele>104</ele>
        <time>2024-02-28T15:47:48Z</time>
      </trkpt>
      <trkpt lat="44.40431" lon="4.41558">
        <ele>105.2</ele>
        <time>2024-02-28T15:47:54Z</time>
      </trkpt>
      <trkpt lat="44.40424" lon="4.41581">
        <ele>106.5</ele>
        <time>2024-02-28T15:48:01Z</time>
      </trkpt>
      <trkpt lat="44.40418" lon="4.41605">
        <ele>109.1</ele>
        <time>2024-02-28T15:48:14Z</time>
      </trkpt>
      <trkpt lat="44.40421" lon="4.41608">
        <ele>109.6</ele>
        <time>2024-02-28T15:48:17Z</time>
      </trkpt>
      <trkpt lat="44.40441" lon="4.41608">
        <ele>112.5</ele>
        <time>2024-02-28T15:48:26Z</time>
      </trkpt>
      <trkpt lat="44.40459" lon="4.41605">
        <ele>115.2</ele>
        <time>2024-02-28T15:48:35Z</time>
      </trkpt>
      <trkpt lat="44.40478" lon="4.41602">
        <ele>117.9</ele>
        <time>2024-02-28T15:48:45Z</time>
      </trkpt>
      <trkpt lat="44.40497" lon="4.416">
        <ele>120.7</ele>
        <time>2024-02-28T15:48:55Z</time>
      </trkpt>
      <trkpt lat="44.40503" lon="4.41603">
        <ele>121.7</ele>
        <time>2024-02-28T15:48:59Z</time>
      </trkpt>
      <trkpt lat="44.40491" lon="4.4162">
        <ele>124.1</ele>
        <time>2024-02-28T15:49:08Z</time>
      </trkpt>
      <trkpt lat="44.40478" lon="4.41637">
        <ele>126.6</ele>
        <time>2024-02-28T15:49:17Z</time>
      </trkpt>
      <trkpt lat="44.40462" lon="4.41652">
        <ele>129.4</ele>
        <time>2024-02-28T15:49:26Z</time>
      </trkpt>
      <trkpt lat="44.40457" lon="4.41656">
        <ele>130.5</ele>
        <time>2024-02-28T15:49:29Z</time>
      </trkpt>
      <trkpt lat="44.40457" lon="4.41661">
        <ele>131.1</ele>
        <time>2024-02-28T15:49:32Z</time>
      </trkpt>
      <trkpt lat="44.40475" lon="4.41663">
        <ele>134.4</ele>
        <time>2024-02-28T15:49:43Z</time>
      </trkpt>
      <trkpt lat="44.40475" lon="4.41668">
        <ele>135</ele>
        <time>2024-02-28T15:49:44Z</time>
      </trkpt>
      <trkpt lat="44.40474" lon="4.4167">
        <ele>135.4</ele>
        <time>2024-02-28T15:49:46Z</time>
      </trkpt>
      <trkpt lat="44.40459" lon="4.41685">
        <ele>138.1</ele>
        <time>2024-02-28T15:49:56Z</time>
      </trkpt>
      <trkpt lat="44.40444" lon="4.41701">
        <ele>140.1</ele>
        <time>2024-02-28T15:50:05Z</time>
      </trkpt>
      <trkpt lat="44.40427" lon="4.41714">
        <ele>142.1</ele>
        <time>2024-02-28T15:50:14Z</time>
      </trkpt>
      <trkpt lat="44.40413" lon="4.4173">
        <ele>144.3</ele>
        <time>2024-02-28T15:50:23Z</time>
      </trkpt>
      <trkpt lat="44.40401" lon="4.4175">
        <ele>147</ele>
        <time>2024-02-28T15:50:32Z</time>
      </trkpt>
      <trkpt lat="44.40398" lon="4.41777">
        <ele>148.4</ele>
        <time>2024-02-28T15:50:41Z</time>
      </trkpt>
      <trkpt lat="44.40403" lon="4.41802">
        <ele>149.4</ele>
        <time>2024-02-28T15:50:48Z</time>
      </trkpt>
      <trkpt lat="44.4041" lon="4.41827">
        <ele>151</ele>
        <time>2024-02-28T15:50:56Z</time>
      </trkpt>
      <trkpt lat="44.40416" lon="4.41853">
        <ele>152.9</ele>
        <time>2024-02-28T15:51:05Z</time>
      </trkpt>
      <trkpt lat="44.40423" lon="4.41876">
        <ele>154.6</ele>
        <time>2024-02-28T15:51:12Z</time>
      </trkpt>
      <trkpt lat="44.40428" lon="4.41902">
        <ele>156.4</ele>
        <time>2024-02-28T15:51:20Z</time>
      </trkpt>
      <trkpt lat="44.40436" lon="4.41928">
        <ele>158.5</ele>
        <time>2024-02-28T15:51:28Z</time>
      </trkpt>
      <trkpt lat="44.40442" lon="4.41943">
        <ele>159.7</ele>
        <time>2024-02-28T15:51:33Z</time>
      </trkpt>
      <trkpt lat="44.4045" lon="4.4197">
        <ele>161.8</ele>
        <time>2024-02-28T15:51:40Z</time>
      </trkpt>
      <trkpt lat="44.40458" lon="4.41996">
        <ele>163.9</ele>
        <time>2024-02-28T15:51:47Z</time>
      </trkpt>
      <trkpt lat="44.40464" lon="4.42021">
        <ele>166</ele>
        <time>2024-02-28T15:51:54Z</time>
      </trkpt>
      <trkpt lat="44.40469" lon="4.42047">
        <ele>168.4</ele>
        <time>2024-02-28T15:52:03Z</time>
      </trkpt>
      <trkpt lat="44.40476" lon="4.42071">
        <ele>170.8</ele>
        <time>2024-02-28T15:52:12Z</time>
      </trkpt>
      <trkpt lat="44.40484" lon="4.42096">
        <ele>173.7</ele>
        <time>2024-02-28T15:52:22Z</time>
      </trkpt>
      <trkpt lat="44.40489" lon="4.42121">
        <ele>176.9</ele>
        <time>2024-02-28T15:52:32Z</time>
      </trkpt>
      <trkpt lat="44.40495" lon="4.42147">
        <ele>180.3</ele>
        <time>2024-02-28T15:52:42Z</time>
      </trkpt>
      <trkpt lat="44.40496" lon="4.42173">
        <ele>183</ele>
        <time>2024-02-28T15:52:51Z</time>
      </trkpt>
      <trkpt lat="44.40497" lon="4.422">
        <ele>185.3</ele>
        <time>2024-02-28T15:53:00Z</time>
      </trkpt>
      <trkpt lat="44.40497" lon="4.42225">
        <ele>188.1</ele>
        <time>2024-02-28T15:53:12Z</time>
      </trkpt>
      <trkpt lat="44.40508" lon="4.42246">
        <ele>191.5</ele>
        <time>2024-02-28T15:53:25Z</time>
      </trkpt>
      <trkpt lat="44.40523" lon="4.42263">
        <ele>194.9</ele>
        <time>2024-02-28T15:53:38Z</time>
      </trkpt>
      <trkpt lat="44.40537" lon="4.42279">
        <ele>198.6</ele>
        <time>2024-02-28T15:53:51Z</time>
      </trkpt>
      <trkpt lat="44.40537" lon="4.4228">
        <ele>198.8</ele>
        <time>2024-02-28T15:53:52Z</time>
      </trkpt>
      <trkpt lat="44.40545" lon="4.42302">
        <ele>202.3</ele>
        <time>2024-02-28T15:54:04Z</time>
      </trkpt>
      <trkpt lat="44.40545" lon="4.42329">
        <ele>205.9</ele>
        <time>2024-02-28T15:54:15Z</time>
      </trkpt>
      <trkpt lat="44.4054" lon="4.42354">
        <ele>209.1</ele>
        <time>2024-02-28T15:54:26Z</time>
      </trkpt>
      <trkpt lat="44.40535" lon="4.42379">
        <ele>212.2</ele>
        <time>2024-02-28T15:54:37Z</time>
      </trkpt>
      <trkpt lat="44.40534" lon="4.42405">
        <ele>215.4</ele>
        <time>2024-02-28T15:54:48Z</time>
      </trkpt>
      <trkpt lat="44.40529" lon="4.42429">
        <ele>217.8</ele>
        <time>2024-02-28T15:54:58Z</time>
      </trkpt>
      <trkpt lat="44.40515" lon="4.42449">
        <ele>220.1</ele>
        <time>2024-02-28T15:55:07Z</time>
      </trkpt>
      <trkpt lat="44.40506" lon="4.42471">
        <ele>223</ele>
        <time>2024-02-28T15:55:17Z</time>
      </trkpt>
      <trkpt lat="44.40498" lon="4.42496">
        <ele>226.8</ele>
        <time>2024-02-28T15:55:28Z</time>
      </trkpt>
      <trkpt lat="44.40481" lon="4.42505">
        <ele>230.4</ele>
        <time>2024-02-28T15:55:40Z</time>
      </trkpt>
      <trkpt lat="44.40464" lon="4.42517">
        <ele>234.4</ele>
        <time>2024-02-28T15:55:53Z</time>
      </trkpt>
      <trkpt lat="44.4045" lon="4.42533">
        <ele>237.8</ele>
        <time>2024-02-28T15:56:05Z</time>
      </trkpt>
      <trkpt lat="44.40439" lon="4.42553">
        <ele>241.1</ele>
        <time>2024-02-28T15:56:16Z</time>
      </trkpt>
      <trkpt lat="44.40436" lon="4.42581">
        <ele>243.4</ele>
        <time>2024-02-28T15:56:26Z</time>
      </trkpt>
      <trkpt lat="44.40434" lon="4.42606">
        <ele>245.3</ele>
        <time>2024-02-28T15:56:35Z</time>
      </trkpt>
      <trkpt lat="44.40431" lon="4.42632">
        <ele>247.2</ele>
        <time>2024-02-28T15:56:44Z</time>
      </trkpt>
      <trkpt lat="44.4043" lon="4.42657">
        <ele>249</ele>
        <time>2024-02-28T15:56:52Z</time>
      </trkpt>
      <trkpt lat="44.4042" lon="4.42681">
        <ele>248.8</ele>
        <time>2024-02-28T15:57:00Z</time>
      </trkpt>
      <trkpt lat="44.40407" lon="4.42699">
        <ele>249.8</ele>
        <time>2024-02-28T15:57:07Z</time>
      </trkpt>
      <trkpt lat="44.40394" lon="4.4272">
        <ele>250.8</ele>
        <time>2024-02-28T15:57:14Z</time>
      </trkpt>
      <trkpt lat="44.40383" lon="4.42743">
        <ele>251.6</ele>
        <time>2024-02-28T15:57:21Z</time>
      </trkpt>
      <trkpt lat="44.40375" lon="4.42769">
        <ele>252.4</ele>
        <time>2024-02-28T15:57:28Z</time>
      </trkpt>
      <trkpt lat="44.4037" lon="4.42795">
        <ele>253</ele>
        <time>2024-02-28T15:57:36Z</time>
      </trkpt>
      <trkpt lat="44.40372" lon="4.42823">
        <ele>253.6</ele>
        <time>2024-02-28T15:57:45Z</time>
      </trkpt>
      <trkpt lat="44.40375" lon="4.42849">
        <ele>254.1</ele>
        <time>2024-02-28T15:57:53Z</time>
      </trkpt>
      <trkpt lat="44.40381" lon="4.42873">
        <ele>254.6</ele>
        <time>2024-02-28T15:58:01Z</time>
      </trkpt>
      <trkpt lat="44.40389" lon="4.42898">
        <ele>255.1</ele>
        <time>2024-02-28T15:58:09Z</time>
      </trkpt>
      <trkpt lat="44.40396" lon="4.42923">
        <ele>254.6</ele>
        <time>2024-02-28T15:58:18Z</time>
      </trkpt>
      <trkpt lat="44.40403" lon="4.42947">
        <ele>254.2</ele>
        <time>2024-02-28T15:58:25Z</time>
      </trkpt>
      <trkpt lat="44.40404" lon="4.42975">
        <ele>253.8</ele>
        <time>2024-02-28T15:58:31Z</time>
      </trkpt>
      <trkpt lat="44.40407" lon="4.43001">
        <ele>253.5</ele>
        <time>2024-02-28T15:58:37Z</time>
      </trkpt>
      <trkpt lat="44.40407" lon="4.43026">
        <ele>253.7</ele>
        <time>2024-02-28T15:58:43Z</time>
      </trkpt>
      <trkpt lat="44.40409" lon="4.43051">
        <ele>254.2</ele>
        <time>2024-02-28T15:58:50Z</time>
      </trkpt>
      <trkpt lat="44.40414" lon="4.43077">
        <ele>255.3</ele>
        <time>2024-02-28T15:58:58Z</time>
      </trkpt>
      <trkpt lat="44.40419" lon="4.43105">
        <ele>257</ele>
        <time>2024-02-28T15:59:07Z</time>
      </trkpt>
      <trkpt lat="44.40421" lon="4.4313">
        <ele>258.8</ele>
        <time>2024-02-28T15:59:14Z</time>
      </trkpt>
      <trkpt lat="44.40422" lon="4.43158">
        <ele>260.8</ele>
        <time>2024-02-28T15:59:22Z</time>
      </trkpt>
      <trkpt lat="44.40425" lon="4.43184">
        <ele>262.7</ele>
        <time>2024-02-28T15:59:30Z</time>
      </trkpt>
      <trkpt lat="44.40427" lon="4.4321">
        <ele>264.4</ele>
        <time>2024-02-28T15:59:38Z</time>
      </trkpt>
      <trkpt lat="44.40429" lon="4.43235">
        <ele>265.8</ele>
        <time>2024-02-28T15:59:47Z</time>
      </trkpt>
      <trkpt lat="44.40431" lon="4.43262">
        <ele>267.5</ele>
        <time>2024-02-28T15:59:56Z</time>
      </trkpt>
      <trkpt lat="44.40433" lon="4.43288">
        <ele>269.2</ele>
        <time>2024-02-28T16:00:03Z</time>
      </trkpt>
      <trkpt lat="44.40432" lon="4.43314">
        <ele>271</ele>
        <time>2024-02-28T16:00:11Z</time>
      </trkpt>
      <trkpt lat="44.40429" lon="4.43339">
        <ele>272.8</ele>
        <time>2024-02-28T16:00:20Z</time>
      </trkpt>
      <trkpt lat="44.40427" lon="4.43366">
        <ele>274.7</ele>
        <time>2024-02-28T16:00:28Z</time>
      </trkpt>
      <trkpt lat="44.40426" lon="4.43394">
        <ele>276.6</ele>
        <time>2024-02-28T16:00:36Z</time>
      </trkpt>
      <trkpt lat="44.40423" lon="4.4342">
        <ele>278.5</ele>
        <time>2024-02-28T16:00:44Z</time>
      </trkpt>
      <trkpt lat="44.40421" lon="4.43422">
        <ele>278.8</ele>
        <time>2024-02-28T16:00:45Z</time>
      </trkpt>
      <trkpt lat="44.40402" lon="4.43424">
        <ele>281.4</ele>
        <time>2024-02-28T16:00:54Z</time>
      </trkpt>
      <trkpt lat="44.40381" lon="4.43421">
        <ele>283.8</ele>
        <time>2024-02-28T16:01:02Z</time>
      </trkpt>
      <trkpt lat="44.40363" lon="4.43419">
        <ele>285.8</ele>
        <time>2024-02-28T16:01:11Z</time>
      </trkpt>
      <trkpt lat="44.40348" lon="4.43435">
        <ele>288.1</ele>
        <time>2024-02-28T16:01:20Z</time>
      </trkpt>
      <trkpt lat="44.40336" lon="4.43454">
        <ele>290.4</ele>
        <time>2024-02-28T16:01:29Z</time>
      </trkpt>
      <trkpt lat="44.4034" lon="4.43474">
        <ele>294.4</ele>
        <time>2024-02-28T16:01:41Z</time>
      </trkpt>
      <trkpt lat="44.40357" lon="4.43488">
        <ele>295.9</ele>
        <time>2024-02-28T16:01:50Z</time>
      </trkpt>
      <trkpt lat="44.40373" lon="4.43505">
        <ele>297.1</ele>
        <time>2024-02-28T16:01:58Z</time>
      </trkpt>
      <trkpt lat="44.40387" lon="4.43523">
        <ele>298.6</ele>
        <time>2024-02-28T16:02:07Z</time>
      </trkpt>
      <trkpt lat="44.40401" lon="4.43541">
        <ele>300.7</ele>
        <time>2024-02-28T16:02:17Z</time>
      </trkpt>
      <trkpt lat="44.40416" lon="4.43556">
        <ele>303.4</ele>
        <time>2024-02-28T16:02:28Z</time>
      </trkpt>
      <trkpt lat="44.40419" lon="4.4356">
        <ele>304</ele>
        <time>2024-02-28T16:02:30Z</time>
      </trkpt>
      <trkpt lat="44.40418" lon="4.43565">
        <ele>304.5</ele>
        <time>2024-02-28T16:02:33Z</time>
      </trkpt>
      <trkpt lat="44.40414" lon="4.43566">
        <ele>304.9</ele>
        <time>2024-02-28T16:02:36Z</time>
      </trkpt>
      <trkpt lat="44.40396" lon="4.43568">
        <ele>306.9</ele>
        <time>2024-02-28T16:02:46Z</time>
      </trkpt>
      <trkpt lat="44.40378" lon="4.43568">
        <ele>308.9</ele>
        <time>2024-02-28T16:02:55Z</time>
      </trkpt>
      <trkpt lat="44.40367" lon="4.43571">
        <ele>310.2</ele>
        <time>2024-02-28T16:03:01Z</time>
      </trkpt>
      <trkpt lat="44.40367" lon="4.43575">
        <ele>310.5</ele>
        <time>2024-02-28T16:03:04Z</time>
      </trkpt>
      <trkpt lat="44.40383" lon="4.43588">
        <ele>312.2</ele>
        <time>2024-02-28T16:03:16Z</time>
      </trkpt>
      <trkpt lat="44.40399" lon="4.436">
        <ele>314.2</ele>
        <time>2024-02-28T16:03:26Z</time>
      </trkpt>
      <trkpt lat="44.4041" lon="4.43609">
        <ele>316.1</ele>
        <time>2024-02-28T16:03:35Z</time>
      </trkpt>
      <trkpt lat="44.40409" lon="4.43613">
        <ele>316.4</ele>
        <time>2024-02-28T16:03:37Z</time>
      </trkpt>
      <trkpt lat="44.40391" lon="4.43616">
        <ele>318.9</ele>
        <time>2024-02-28T16:03:50Z</time>
      </trkpt>
      <trkpt lat="44.40372" lon="4.43618">
        <ele>321.4</ele>
        <time>2024-02-28T16:04:00Z</time>
      </trkpt>
      <trkpt lat="44.40357" lon="4.43619">
        <ele>323.4</ele>
        <time>2024-02-28T16:04:09Z</time>
      </trkpt>
      <trkpt lat="44.40357" lon="4.43623">
        <ele>323.8</ele>
        <time>2024-02-28T16:04:11Z</time>
      </trkpt>
      <trkpt lat="44.40372" lon="4.43638">
        <ele>325.6</ele>
        <time>2024-02-28T16:04:23Z</time>
      </trkpt>
      <trkpt lat="44.40389" lon="4.4365">
        <ele>327.1</ele>
        <time>2024-02-28T16:04:32Z</time>
      </trkpt>
      <trkpt lat="44.40404" lon="4.43666">
        <ele>329.1</ele>
        <time>2024-02-28T16:04:42Z</time>
      </trkpt>
      <trkpt lat="44.40419" lon="4.43683">
        <ele>331.4</ele>
        <time>2024-02-28T16:04:51Z</time>
      </trkpt>
      <trkpt lat="44.40432" lon="4.43704">
        <ele>334</ele>
        <time>2024-02-28T16:05:01Z</time>
      </trkpt>
      <trkpt lat="44.40443" lon="4.43726">
        <ele>336.8</ele>
        <time>2024-02-28T16:05:11Z</time>
      </trkpt>
      <trkpt lat="44.40452" lon="4.43744">
        <ele>339.4</ele>
        <time>2024-02-28T16:05:19Z</time>
      </trkpt>
      <trkpt lat="44.40434" lon="4.43741">
        <ele>342.3</ele>
        <time>2024-02-28T16:05:30Z</time>
      </trkpt>
      <trkpt lat="44.40425" lon="4.43746">
        <ele>343.7</ele>
        <time>2024-02-28T16:05:36Z</time>
      </trkpt>
      <trkpt lat="44.40436" lon="4.43766">
        <ele>346.6</ele>
        <time>2024-02-28T16:05:46Z</time>
      </trkpt>
      <trkpt lat="44.4045" lon="4.43785">
        <ele>349.4</ele>
        <time>2024-02-28T16:05:55Z</time>
      </trkpt>
      <trkpt lat="44.40462" lon="4.43806">
        <ele>351.9</ele>
        <time>2024-02-28T16:06:04Z</time>
      </trkpt>
      <trkpt lat="44.40471" lon="4.43828">
        <ele>354.6</ele>
        <time>2024-02-28T16:06:13Z</time>
      </trkpt>
      <trkpt lat="44.40477" lon="4.43851">
        <ele>357.6</ele>
        <time>2024-02-28T16:06:23Z</time>
      </trkpt>
      <trkpt lat="44.40477" lon="4.43853">
        <ele>357.9</ele>
        <time>2024-02-28T16:06:24Z</time>
      </trkpt>
      <trkpt lat="44.40474" lon="4.43855">
        <ele>358.4</ele>
        <time>2024-02-28T16:06:26Z</time>
      </trkpt>
      <trkpt lat="44.40456" lon="4.43849">
        <ele>361.7</ele>
        <time>2024-02-28T16:06:36Z</time>
      </trkpt>
      <trkpt lat="44.40444" lon="4.43849">
        <ele>363.8</ele>
        <time>2024-02-28T16:06:43Z</time>
      </trkpt>
      <trkpt lat="44.40443" lon="4.43854">
        <ele>364.3</ele>
        <time>2024-02-28T16:06:45Z</time>
      </trkpt>
      <trkpt lat="44.40452" lon="4.43877">
        <ele>367.1</ele>
        <time>2024-02-28T16:06:55Z</time>
      </trkpt>
      <trkpt lat="44.4046" lon="4.43901">
        <ele>369.3</ele>
        <time>2024-02-28T16:07:04Z</time>
      </trkpt>
      <trkpt lat="44.40467" lon="4.43924">
        <ele>371.7</ele>
        <time>2024-02-28T16:07:13Z</time>
      </trkpt>
      <trkpt lat="44.40475" lon="4.43946">
        <ele>374.6</ele>
        <time>2024-02-28T16:07:23Z</time>
      </trkpt>
      <trkpt lat="44.40481" lon="4.43973">
        <ele>377.6</ele>
        <time>2024-02-28T16:07:33Z</time>
      </trkpt>
      <trkpt lat="44.40488" lon="4.43998">
        <ele>380.2</ele>
        <time>2024-02-28T16:07:43Z</time>
      </trkpt>
      <trkpt lat="44.40498" lon="4.44019">
        <ele>382.6</ele>
        <time>2024-02-28T16:07:53Z</time>
      </trkpt>
      <trkpt lat="44.40515" lon="4.44031">
        <ele>385.2</ele>
        <time>2024-02-28T16:08:03Z</time>
      </trkpt>
      <trkpt lat="44.40526" lon="4.44052">
        <ele>387.8</ele>
        <time>2024-02-28T16:08:13Z</time>
      </trkpt>
      <trkpt lat="44.40527" lon="4.44078">
        <ele>390.8</ele>
        <time>2024-02-28T16:08:23Z</time>
      </trkpt>
      <trkpt lat="44.40516" lon="4.44098">
        <ele>393.8</ele>
        <time>2024-02-28T16:08:33Z</time>
      </trkpt>
      <trkpt lat="44.40497" lon="4.44096">
        <ele>397.1</ele>
        <time>2024-02-28T16:08:43Z</time>
      </trkpt>
      <trkpt lat="44.40478" lon="4.44096">
        <ele>400</ele>
        <time>2024-02-28T16:08:53Z</time>
      </trkpt>
      <trkpt lat="44.40474" lon="4.4412">
        <ele>404.6</ele>
        <time>2024-02-28T16:09:04Z</time>
      </trkpt>
      <trkpt lat="44.40471" lon="4.44148">
        <ele>407.2</ele>
        <time>2024-02-28T16:09:14Z</time>
      </trkpt>
      <trkpt lat="44.40458" lon="4.4417">
        <ele>409.5</ele>
        <time>2024-02-28T16:09:23Z</time>
      </trkpt>
      <trkpt lat="44.40445" lon="4.44188">
        <ele>410.9</ele>
        <time>2024-02-28T16:09:31Z</time>
      </trkpt>
      <trkpt lat="44.40436" lon="4.44199">
        <ele>411.7</ele>
        <time>2024-02-28T16:09:38Z</time>
      </trkpt>
      <trkpt lat="44.40437" lon="4.44199">
        <ele>411.7</ele>
        <time>2024-02-28T16:11:30Z</time>
      </trkpt>
      <trkpt lat="44.40434" lon="4.44204">
        <ele>411.9</ele>
        <time>2024-02-28T16:11:34Z</time>
      </trkpt>
      <trkpt lat="44.40421" lon="4.44226">
        <ele>412.9</ele>
        <time>2024-02-28T16:11:43Z</time>
      </trkpt>
      <trkpt lat="44.40408" lon="4.44244">
        <ele>413.8</ele>
        <time>2024-02-28T16:11:49Z</time>
      </trkpt>
      <trkpt lat="44.40395" lon="4.44262">
        <ele>414.8</ele>
        <time>2024-02-28T16:11:57Z</time>
      </trkpt>
      <trkpt lat="44.40382" lon="4.44283">
        <ele>416</ele>
        <time>2024-02-28T16:12:06Z</time>
      </trkpt>
      <trkpt lat="44.4037" lon="4.44301">
        <ele>417.2</ele>
        <time>2024-02-28T16:12:15Z</time>
      </trkpt>
      <trkpt lat="44.40357" lon="4.44322">
        <ele>418.5</ele>
        <time>2024-02-28T16:12:23Z</time>
      </trkpt>
      <trkpt lat="44.40344" lon="4.44341">
        <ele>419.9</ele>
        <time>2024-02-28T16:12:32Z</time>
      </trkpt>
      <trkpt lat="44.4033" lon="4.44363">
        <ele>421.3</ele>
        <time>2024-02-28T16:12:40Z</time>
      </trkpt>
      <trkpt lat="44.40316" lon="4.44379">
        <ele>422.3</ele>
        <time>2024-02-28T16:12:48Z</time>
      </trkpt>
      <trkpt lat="44.40315" lon="4.4438">
        <ele>422.3</ele>
        <time>2024-02-28T16:12:49Z</time>
      </trkpt>
      <trkpt lat="44.40304" lon="4.44403">
        <ele>422.7</ele>
        <time>2024-02-28T16:12:58Z</time>
      </trkpt>
      <trkpt lat="44.40303" lon="4.4441">
        <ele>422.8</ele>
        <time>2024-02-28T16:13:03Z</time>
      </trkpt>
      <trkpt lat="44.40316" lon="4.44394">
        <ele>423.2</ele>
        <time>2024-02-28T16:13:10Z</time>
      </trkpt>
      <trkpt lat="44.40319" lon="4.44381">
        <ele>423.3</ele>
        <time>2024-02-28T16:13:14Z</time>
      </trkpt>
      <trkpt lat="44.40316" lon="4.44381">
        <ele>423.4</ele>
        <time>2024-02-28T16:13:17Z</time>
      </trkpt>
      <trkpt lat="44.40303" lon="4.44399">
        <ele>423.7</ele>
        <time>2024-02-28T16:13:26Z</time>
      </trkpt>
      <trkpt lat="44.40295" lon="4.44423">
        <ele>424</ele>
        <time>2024-02-28T16:13:34Z</time>
      </trkpt>
      <trkpt lat="44.4029" lon="4.44447">
        <ele>424.3</ele>
        <time>2024-02-28T16:13:41Z</time>
      </trkpt>
      <trkpt lat="44.40287" lon="4.44474">
        <ele>424.4</ele>
        <time>2024-02-28T16:13:49Z</time>
      </trkpt>
      <trkpt lat="44.40282" lon="4.44487">
        <ele>424.4</ele>
        <time>2024-02-28T16:13:55Z</time>
      </trkpt>
      <trkpt lat="44.40289" lon="4.44462">
        <ele>424.2</ele>
        <time>2024-02-28T16:14:02Z</time>
      </trkpt>
      <trkpt lat="44.40295" lon="4.44435">
        <ele>423.7</ele>
        <time>2024-02-28T16:14:09Z</time>
      </trkpt>
      <trkpt lat="44.40304" lon="4.4441">
        <ele>423.1</ele>
        <time>2024-02-28T16:14:17Z</time>
      </trkpt>
      <trkpt lat="44.40314" lon="4.44388">
        <ele>422.5</ele>
        <time>2024-02-28T16:14:23Z</time>
      </trkpt>
      <trkpt lat="44.40308" lon="4.4436">
        <ele>422.2</ele>
        <time>2024-02-28T16:14:29Z</time>
      </trkpt>
      <trkpt lat="44.40299" lon="4.44338">
        <ele>422</ele>
        <time>2024-02-28T16:14:34Z</time>
      </trkpt>
      <trkpt lat="44.40285" lon="4.4432">
        <ele>421.7</ele>
        <time>2024-02-28T16:14:39Z</time>
      </trkpt>
      <trkpt lat="44.4027" lon="4.44305">
        <ele>421.4</ele>
        <time>2024-02-28T16:14:44Z</time>
      </trkpt>
      <trkpt lat="44.40256" lon="4.44284">
        <ele>420.8</ele>
        <time>2024-02-28T16:14:50Z</time>
      </trkpt>
      <trkpt lat="44.40245" lon="4.4426">
        <ele>420.2</ele>
        <time>2024-02-28T16:14:56Z</time>
      </trkpt>
      <trkpt lat="44.40234" lon="4.44237">
        <ele>419.5</ele>
        <time>2024-02-28T16:15:02Z</time>
      </trkpt>
      <trkpt lat="44.40221" lon="4.44215">
        <ele>418.7</ele>
        <time>2024-02-28T16:15:08Z</time>
      </trkpt>
      <trkpt lat="44.40208" lon="4.44197">
        <ele>417.9</ele>
        <time>2024-02-28T16:15:14Z</time>
      </trkpt>
      <trkpt lat="44.40193" lon="4.44182">
        <ele>417.1</ele>
        <time>2024-02-28T16:15:20Z</time>
      </trkpt>
      <trkpt lat="44.40179" lon="4.44165">
        <ele>416</ele>
        <time>2024-02-28T16:15:26Z</time>
      </trkpt>
      <trkpt lat="44.40168" lon="4.44145">
        <ele>414.7</ele>
        <time>2024-02-28T16:15:32Z</time>
      </trkpt>
      <trkpt lat="44.40155" lon="4.44127">
        <ele>413.3</ele>
        <time>2024-02-28T16:15:38Z</time>
      </trkpt>
      <trkpt lat="44.40144" lon="4.44102">
        <ele>411.9</ele>
        <time>2024-02-28T16:15:44Z</time>
      </trkpt>
      <trkpt lat="44.40131" lon="4.44079">
        <ele>410.5</ele>
        <time>2024-02-28T16:15:50Z</time>
      </trkpt>
      <trkpt lat="44.40125" lon="4.44052">
        <ele>408.9</ele>
        <time>2024-02-28T16:15:56Z</time>
      </trkpt>
      <trkpt lat="44.40116" lon="4.44029">
        <ele>407.5</ele>
        <time>2024-02-28T16:16:02Z</time>
      </trkpt>
      <trkpt lat="44.40104" lon="4.44008">
        <ele>405.9</ele>
        <time>2024-02-28T16:16:08Z</time>
      </trkpt>
      <trkpt lat="44.40101" lon="4.43981">
        <ele>404.4</ele>
        <time>2024-02-28T16:16:15Z</time>
      </trkpt>
      <trkpt lat="44.401" lon="4.43952">
        <ele>402.8</ele>
        <time>2024-02-28T16:16:21Z</time>
      </trkpt>
      <trkpt lat="44.40091" lon="4.43931">
        <ele>401.6</ele>
        <time>2024-02-28T16:16:26Z</time>
      </trkpt>
      <trkpt lat="44.40076" lon="4.43909">
        <ele>400.5</ele>
        <time>2024-02-28T16:16:32Z</time>
      </trkpt>
      <trkpt lat="44.40062" lon="4.4389">
        <ele>399.6</ele>
        <time>2024-02-28T16:16:38Z</time>
      </trkpt>
      <trkpt lat="44.40048" lon="4.4387">
        <ele>398.9</ele>
        <time>2024-02-28T16:16:44Z</time>
      </trkpt>
      <trkpt lat="44.40034" lon="4.43855">
        <ele>398.5</ele>
        <time>2024-02-28T16:16:50Z</time>
      </trkpt>
      <trkpt lat="44.40019" lon="4.4384">
        <ele>398.1</ele>
        <time>2024-02-28T16:16:56Z</time>
      </trkpt>
      <trkpt lat="44.40001" lon="4.43826">
        <ele>397.9</ele>
        <time>2024-02-28T16:17:03Z</time>
      </trkpt>
      <trkpt lat="44.39987" lon="4.4381">
        <ele>398</ele>
        <time>2024-02-28T16:17:09Z</time>
      </trkpt>
      <trkpt lat="44.39973" lon="4.43794">
        <ele>398</ele>
        <time>2024-02-28T16:17:15Z</time>
      </trkpt>
      <trkpt lat="44.39956" lon="4.43776">
        <ele>397.5</ele>
        <time>2024-02-28T16:17:22Z</time>
      </trkpt>
      <trkpt lat="44.3994" lon="4.4376">
        <ele>396.8</ele>
        <time>2024-02-28T16:17:28Z</time>
      </trkpt>
      <trkpt lat="44.39923" lon="4.43746">
        <ele>396</ele>
        <time>2024-02-28T16:17:34Z</time>
      </trkpt>
      <trkpt lat="44.39907" lon="4.43729">
        <ele>395.1</ele>
        <time>2024-02-28T16:17:41Z</time>
      </trkpt>
      <trkpt lat="44.39891" lon="4.43712">
        <ele>393.7</ele>
        <time>2024-02-28T16:17:47Z</time>
      </trkpt>
      <trkpt lat="44.39874" lon="4.43696">
        <ele>391.9</ele>
        <time>2024-02-28T16:17:53Z</time>
      </trkpt>
      <trkpt lat="44.39858" lon="4.43683">
        <ele>390.4</ele>
        <time>2024-02-28T16:17:58Z</time>
      </trkpt>
      <trkpt lat="44.39841" lon="4.43667">
        <ele>390</ele>
        <time>2024-02-28T16:18:04Z</time>
      </trkpt>
      <trkpt lat="44.39825" lon="4.43652">
        <ele>390.5</ele>
        <time>2024-02-28T16:18:11Z</time>
      </trkpt>
      <trkpt lat="44.39808" lon="4.43638">
        <ele>391.2</ele>
        <time>2024-02-28T16:18:18Z</time>
      </trkpt>
      <trkpt lat="44.39794" lon="4.43617">
        <ele>392.1</ele>
        <time>2024-02-28T16:18:25Z</time>
      </trkpt>
      <trkpt lat="44.39778" lon="4.43601">
        <ele>392.5</ele>
        <time>2024-02-28T16:18:32Z</time>
      </trkpt>
      <trkpt lat="44.3976" lon="4.43587">
        <ele>392</ele>
        <time>2024-02-28T16:18:39Z</time>
      </trkpt>
      <trkpt lat="44.39744" lon="4.43574">
        <ele>391.1</ele>
        <time>2024-02-28T16:18:45Z</time>
      </trkpt>
      <trkpt lat="44.39733" lon="4.43555">
        <ele>390.2</ele>
        <time>2024-02-28T16:18:51Z</time>
      </trkpt>
      <trkpt lat="44.39719" lon="4.43537">
        <ele>389.1</ele>
        <time>2024-02-28T16:18:57Z</time>
      </trkpt>
      <trkpt lat="44.39703" lon="4.43524">
        <ele>387.5</ele>
        <time>2024-02-28T16:19:03Z</time>
      </trkpt>
      <trkpt lat="44.39685" lon="4.43514">
        <ele>385.8</ele>
        <time>2024-02-28T16:19:09Z</time>
      </trkpt>
      <trkpt lat="44.39665" lon="4.43509">
        <ele>384.7</ele>
        <time>2024-02-28T16:19:15Z</time>
      </trkpt>
      <trkpt lat="44.39647" lon="4.43505">
        <ele>384.3</ele>
        <time>2024-02-28T16:19:21Z</time>
      </trkpt>
      <trkpt lat="44.39628" lon="4.435">
        <ele>384.6</ele>
        <time>2024-02-28T16:19:28Z</time>
      </trkpt>
      <trkpt lat="44.39609" lon="4.43498">
        <ele>385.1</ele>
        <time>2024-02-28T16:19:35Z</time>
      </trkpt>
      <trkpt lat="44.39589" lon="4.43498">
        <ele>385.5</ele>
        <time>2024-02-28T16:19:42Z</time>
      </trkpt>
      <trkpt lat="44.39573" lon="4.43486">
        <ele>385.1</ele>
        <time>2024-02-28T16:19:48Z</time>
      </trkpt>
      <trkpt lat="44.39557" lon="4.43473">
        <ele>384.3</ele>
        <time>2024-02-28T16:19:54Z</time>
      </trkpt>
      <trkpt lat="44.39541" lon="4.43457">
        <ele>383</ele>
        <time>2024-02-28T16:20:00Z</time>
      </trkpt>
      <trkpt lat="44.39525" lon="4.43443">
        <ele>381.4</ele>
        <time>2024-02-28T16:20:06Z</time>
      </trkpt>
      <trkpt lat="44.39506" lon="4.43432">
        <ele>379.8</ele>
        <time>2024-02-28T16:20:12Z</time>
      </trkpt>
      <trkpt lat="44.39488" lon="4.43424">
        <ele>378.6</ele>
        <time>2024-02-28T16:20:18Z</time>
      </trkpt>
      <trkpt lat="44.39471" lon="4.43415">
        <ele>377.6</ele>
        <time>2024-02-28T16:20:24Z</time>
      </trkpt>
      <trkpt lat="44.39455" lon="4.434">
        <ele>376.3</ele>
        <time>2024-02-28T16:20:30Z</time>
      </trkpt>
      <trkpt lat="44.39438" lon="4.43386">
        <ele>374.8</ele>
        <time>2024-02-28T16:20:36Z</time>
      </trkpt>
      <trkpt lat="44.3942" lon="4.43382">
        <ele>373.8</ele>
        <time>2024-02-28T16:20:42Z</time>
      </trkpt>
      <trkpt lat="44.39416" lon="4.4338">
        <ele>373.5</ele>
        <time>2024-02-28T16:20:44Z</time>
      </trkpt>
      <trkpt lat="44.3941" lon="4.43356">
        <ele>371.5</ele>
        <time>2024-02-28T16:20:50Z</time>
      </trkpt>
      <trkpt lat="44.39399" lon="4.43337">
        <ele>368.9</ele>
        <time>2024-02-28T16:20:56Z</time>
      </trkpt>
      <trkpt lat="44.3939" lon="4.43328">
        <ele>367.4</ele>
        <time>2024-02-28T16:21:03Z</time>
      </trkpt>
      <trkpt lat="44.39374" lon="4.43311">
        <ele>364.6</ele>
        <time>2024-02-28T16:21:09Z</time>
      </trkpt>
      <trkpt lat="44.39357" lon="4.43303">
        <ele>362.6</ele>
        <time>2024-02-28T16:21:14Z</time>
      </trkpt>
      <trkpt lat="44.39355" lon="4.43299">
        <ele>362.3</ele>
        <time>2024-02-28T16:21:15Z</time>
      </trkpt>
      <trkpt lat="44.39355" lon="4.43289">
        <ele>361.8</ele>
        <time>2024-02-28T16:21:17Z</time>
      </trkpt>
      <trkpt lat="44.39362" lon="4.43283">
        <ele>361.3</ele>
        <time>2024-02-28T16:21:20Z</time>
      </trkpt>
      <trkpt lat="44.39384" lon="4.43279">
        <ele>360</ele>
        <time>2024-02-28T16:21:26Z</time>
      </trkpt>
      <trkpt lat="44.39403" lon="4.43273">
        <ele>358.5</ele>
        <time>2024-02-28T16:21:31Z</time>
      </trkpt>
      <trkpt lat="44.39421" lon="4.43272">
        <ele>357.5</ele>
        <time>2024-02-28T16:21:36Z</time>
      </trkpt>
      <trkpt lat="44.39441" lon="4.43274">
        <ele>356.9</ele>
        <time>2024-02-28T16:21:42Z</time>
      </trkpt>
      <trkpt lat="44.39462" lon="4.43278">
        <ele>356.3</ele>
        <time>2024-02-28T16:21:48Z</time>
      </trkpt>
      <trkpt lat="44.3948" lon="4.43279">
        <ele>355.1</ele>
        <time>2024-02-28T16:21:54Z</time>
      </trkpt>
      <trkpt lat="44.395" lon="4.43271">
        <ele>352.5</ele>
        <time>2024-02-28T16:21:59Z</time>
      </trkpt>
      <trkpt lat="44.39519" lon="4.43261">
        <ele>350.6</ele>
        <time>2024-02-28T16:22:04Z</time>
      </trkpt>
      <trkpt lat="44.39524" lon="4.43255">
        <ele>349.8</ele>
        <time>2024-02-28T16:22:07Z</time>
      </trkpt>
      <trkpt lat="44.3952" lon="4.43231">
        <ele>347.3</ele>
        <time>2024-02-28T16:22:13Z</time>
      </trkpt>
      <trkpt lat="44.39512" lon="4.43203">
        <ele>344.2</ele>
        <time>2024-02-28T16:22:19Z</time>
      </trkpt>
      <trkpt lat="44.39501" lon="4.43178">
        <ele>341.3</ele>
        <time>2024-02-28T16:22:24Z</time>
      </trkpt>
      <trkpt lat="44.39494" lon="4.43152">
        <ele>338.4</ele>
        <time>2024-02-28T16:22:29Z</time>
      </trkpt>
      <trkpt lat="44.39486" lon="4.43125">
        <ele>335.4</ele>
        <time>2024-02-28T16:22:35Z</time>
      </trkpt>
      <trkpt lat="44.39478" lon="4.43097">
        <ele>332</ele>
        <time>2024-02-28T16:22:41Z</time>
      </trkpt>
      <trkpt lat="44.3947" lon="4.43073">
        <ele>329.5</ele>
        <time>2024-02-28T16:22:46Z</time>
      </trkpt>
      <trkpt lat="44.39461" lon="4.43054">
        <ele>328.4</ele>
        <time>2024-02-28T16:22:53Z</time>
      </trkpt>
      <trkpt lat="44.39461" lon="4.43053">
        <ele>328.3</ele>
        <time>2024-02-28T16:22:56Z</time>
      </trkpt>
      <trkpt lat="44.39466" lon="4.43049">
        <ele>327.7</ele>
        <time>2024-02-28T16:23:04Z</time>
      </trkpt>
      <trkpt lat="44.39447" lon="4.43053">
        <ele>325.2</ele>
        <time>2024-02-28T16:23:13Z</time>
      </trkpt>
      <trkpt lat="44.39429" lon="4.43049">
        <ele>321.5</ele>
        <time>2024-02-28T16:23:20Z</time>
      </trkpt>
      <trkpt lat="44.39424" lon="4.43055">
        <ele>320</ele>
        <time>2024-02-28T16:23:22Z</time>
      </trkpt>
      <trkpt lat="44.39408" lon="4.43073">
        <ele>315.4</ele>
        <time>2024-02-28T16:23:28Z</time>
      </trkpt>
      <trkpt lat="44.3939" lon="4.43084">
        <ele>312.9</ele>
        <time>2024-02-28T16:23:34Z</time>
      </trkpt>
      <trkpt lat="44.39374" lon="4.43069">
        <ele>310.6</ele>
        <time>2024-02-28T16:23:41Z</time>
      </trkpt>
      <trkpt lat="44.39358" lon="4.43051">
        <ele>307.9</ele>
        <time>2024-02-28T16:23:48Z</time>
      </trkpt>
      <trkpt lat="44.39342" lon="4.43039">
        <ele>305.6</ele>
        <time>2024-02-28T16:23:54Z</time>
      </trkpt>
      <trkpt lat="44.39324" lon="4.43028">
        <ele>303.5</ele>
        <time>2024-02-28T16:24:01Z</time>
      </trkpt>
      <trkpt lat="44.39307" lon="4.43013">
        <ele>301.4</ele>
        <time>2024-02-28T16:24:08Z</time>
      </trkpt>
      <trkpt lat="44.39291" lon="4.43003">
        <ele>299.5</ele>
        <time>2024-02-28T16:24:15Z</time>
      </trkpt>
      <trkpt lat="44.39274" lon="4.42991">
        <ele>297.9</ele>
        <time>2024-02-28T16:24:22Z</time>
      </trkpt>
      <trkpt lat="44.39255" lon="4.42981">
        <ele>296.2</ele>
        <time>2024-02-28T16:24:29Z</time>
      </trkpt>
      <trkpt lat="44.39236" lon="4.42976">
        <ele>295</ele>
        <time>2024-02-28T16:24:37Z</time>
      </trkpt>
      <trkpt lat="44.39218" lon="4.42972">
        <ele>294.2</ele>
        <time>2024-02-28T16:24:44Z</time>
      </trkpt>
      <trkpt lat="44.392" lon="4.42958">
        <ele>293.7</ele>
        <time>2024-02-28T16:24:52Z</time>
      </trkpt>
      <trkpt lat="44.39183" lon="4.42943">
        <ele>293.2</ele>
        <time>2024-02-28T16:25:00Z</time>
      </trkpt>
      <trkpt lat="44.39166" lon="4.42929">
        <ele>292.3</ele>
        <time>2024-02-28T16:25:08Z</time>
      </trkpt>
      <trkpt lat="44.39154" lon="4.42911">
        <ele>290.9</ele>
        <time>2024-02-28T16:25:15Z</time>
      </trkpt>
      <trkpt lat="44.39138" lon="4.42899">
        <ele>289.2</ele>
        <time>2024-02-28T16:25:22Z</time>
      </trkpt>
      <trkpt lat="44.39128" lon="4.42904">
        <ele>288.4</ele>
        <time>2024-02-28T16:25:26Z</time>
      </trkpt>
      <trkpt lat="44.39125" lon="4.4293">
        <ele>287.1</ele>
        <time>2024-02-28T16:25:32Z</time>
      </trkpt>
      <trkpt lat="44.39125" lon="4.42954">
        <ele>285.7</ele>
        <time>2024-02-28T16:25:38Z</time>
      </trkpt>
      <trkpt lat="44.39121" lon="4.42953">
        <ele>285.3</ele>
        <time>2024-02-28T16:25:40Z</time>
      </trkpt>
      <trkpt lat="44.39109" lon="4.42932">
        <ele>283.4</ele>
        <time>2024-02-28T16:25:47Z</time>
      </trkpt>
      <trkpt lat="44.39101" lon="4.42904">
        <ele>281.5</ele>
        <time>2024-02-28T16:25:53Z</time>
      </trkpt>
      <trkpt lat="44.39095" lon="4.42891">
        <ele>280.4</ele>
        <time>2024-02-28T16:25:57Z</time>
      </trkpt>
      <trkpt lat="44.39093" lon="4.42893">
        <ele>280.1</ele>
        <time>2024-02-28T16:25:59Z</time>
      </trkpt>
      <trkpt lat="44.39095" lon="4.4292">
        <ele>278.4</ele>
        <time>2024-02-28T16:26:05Z</time>
      </trkpt>
      <trkpt lat="44.39099" lon="4.42945">
        <ele>276.9</ele>
        <time>2024-02-28T16:26:11Z</time>
      </trkpt>
      <trkpt lat="44.39106" lon="4.4297">
        <ele>275.5</ele>
        <time>2024-02-28T16:26:18Z</time>
      </trkpt>
      <trkpt lat="44.39113" lon="4.42995">
        <ele>274.5</ele>
        <time>2024-02-28T16:26:27Z</time>
      </trkpt>
      <trkpt lat="44.39119" lon="4.4302">
        <ele>273.6</ele>
        <time>2024-02-28T16:26:38Z</time>
      </trkpt>
      <trkpt lat="44.39118" lon="4.4303">
        <ele>273.4</ele>
        <time>2024-02-28T16:26:41Z</time>
      </trkpt>
      <trkpt lat="44.39112" lon="4.4301">
        <ele>273</ele>
        <time>2024-02-28T16:26:51Z</time>
      </trkpt>
      <trkpt lat="44.39109" lon="4.43005">
        <ele>272.7</ele>
        <time>2024-02-28T16:26:52Z</time>
      </trkpt>
      <trkpt lat="44.39095" lon="4.42988">
        <ele>271.5</ele>
        <time>2024-02-28T16:26:59Z</time>
      </trkpt>
      <trkpt lat="44.39083" lon="4.42967">
        <ele>270.4</ele>
        <time>2024-02-28T16:27:05Z</time>
      </trkpt>
      <trkpt lat="44.39075" lon="4.42944">
        <ele>269.5</ele>
        <time>2024-02-28T16:27:11Z</time>
      </trkpt>
      <trkpt lat="44.39064" lon="4.42923">
        <ele>268.5</ele>
        <time>2024-02-28T16:27:17Z</time>
      </trkpt>
      <trkpt lat="44.39057" lon="4.42896">
        <ele>267.4</ele>
        <time>2024-02-28T16:27:24Z</time>
      </trkpt>
      <trkpt lat="44.39045" lon="4.42877">
        <ele>266.5</ele>
        <time>2024-02-28T16:27:31Z</time>
      </trkpt>
      <trkpt lat="44.39041" lon="4.42852">
        <ele>267</ele>
        <time>2024-02-28T16:27:39Z</time>
      </trkpt>
      <trkpt lat="44.39043" lon="4.42826">
        <ele>269.1</ele>
        <time>2024-02-28T16:27:47Z</time>
      </trkpt>
      <trkpt lat="44.39044" lon="4.42798">
        <ele>270.8</ele>
        <time>2024-02-28T16:27:56Z</time>
      </trkpt>
      <trkpt lat="44.39043" lon="4.42783">
        <ele>270.6</ele>
        <time>2024-02-28T16:28:01Z</time>
      </trkpt>
      <trkpt lat="44.39061" lon="4.42788">
        <ele>269.4</ele>
        <time>2024-02-28T16:28:10Z</time>
      </trkpt>
      <trkpt lat="44.3908" lon="4.42788">
        <ele>268.3</ele>
        <time>2024-02-28T16:28:17Z</time>
      </trkpt>
      <trkpt lat="44.39083" lon="4.42785">
        <ele>268.3</ele>
        <time>2024-02-28T16:28:19Z</time>
      </trkpt>
      <trkpt lat="44.39084" lon="4.42777">
        <ele>268.5</ele>
        <time>2024-02-28T16:28:22Z</time>
      </trkpt>
      <trkpt lat="44.39078" lon="4.42753">
        <ele>270.4</ele>
        <time>2024-02-28T16:28:32Z</time>
      </trkpt>
      <trkpt lat="44.39083" lon="4.42743">
        <ele>272</ele>
        <time>2024-02-28T16:28:39Z</time>
      </trkpt>
      <trkpt lat="44.39076" lon="4.4272">
        <ele>275.5</ele>
        <time>2024-02-28T16:28:50Z</time>
      </trkpt>
      <trkpt lat="44.39075" lon="4.42692">
        <ele>278.9</ele>
        <time>2024-02-28T16:29:02Z</time>
      </trkpt>
      <trkpt lat="44.39073" lon="4.42673">
        <ele>281.4</ele>
        <time>2024-02-28T16:29:10Z</time>
      </trkpt>
      <trkpt lat="44.39071" lon="4.42646">
        <ele>284.5</ele>
        <time>2024-02-28T16:29:21Z</time>
      </trkpt>
      <trkpt lat="44.39065" lon="4.42621">
        <ele>286.6</ele>
        <time>2024-02-28T16:29:30Z</time>
      </trkpt>
      <trkpt lat="44.39056" lon="4.42599">
        <ele>288.5</ele>
        <time>2024-02-28T16:29:40Z</time>
      </trkpt>
      <trkpt lat="44.39044" lon="4.42582">
        <ele>289.4</ele>
        <time>2024-02-28T16:29:50Z</time>
      </trkpt>
      <trkpt lat="44.3903" lon="4.42561">
        <ele>289.2</ele>
        <time>2024-02-28T16:29:58Z</time>
      </trkpt>
      <trkpt lat="44.39024" lon="4.42537">
        <ele>289.6</ele>
        <time>2024-02-28T16:30:06Z</time>
      </trkpt>
      <trkpt lat="44.39019" lon="4.42512">
        <ele>289.9</ele>
        <time>2024-02-28T16:30:15Z</time>
      </trkpt>
      <trkpt lat="44.3902" lon="4.42487">
        <ele>290.5</ele>
        <time>2024-02-28T16:30:23Z</time>
      </trkpt>
      <trkpt lat="44.39024" lon="4.42462">
        <ele>291.5</ele>
        <time>2024-02-28T16:30:34Z</time>
      </trkpt>
      <trkpt lat="44.39022" lon="4.42458">
        <ele>291.6</ele>
        <time>2024-02-28T16:30:36Z</time>
      </trkpt>
      <trkpt lat="44.39011" lon="4.42436">
        <ele>291.3</ele>
        <time>2024-02-28T16:30:44Z</time>
      </trkpt>
      <trkpt lat="44.39002" lon="4.42412">
        <ele>290.9</ele>
        <time>2024-02-28T16:30:51Z</time>
      </trkpt>
      <trkpt lat="44.39002" lon="4.42384">
        <ele>291.1</ele>
        <time>2024-02-28T16:30:59Z</time>
      </trkpt>
      <trkpt lat="44.38996" lon="4.4237">
        <ele>290.5</ele>
        <time>2024-02-28T16:31:04Z</time>
      </trkpt>
      <trkpt lat="44.3898" lon="4.42353">
        <ele>287.7</ele>
        <time>2024-02-28T16:31:12Z</time>
      </trkpt>
      <trkpt lat="44.3897" lon="4.42347">
        <ele>285.6</ele>
        <time>2024-02-28T16:31:18Z</time>
      </trkpt>
      <trkpt lat="44.38956" lon="4.42327">
        <ele>281.9</ele>
        <time>2024-02-28T16:31:26Z</time>
      </trkpt>
      <trkpt lat="44.38946" lon="4.42306">
        <ele>280.4</ele>
        <time>2024-02-28T16:31:33Z</time>
      </trkpt>
      <trkpt lat="44.38933" lon="4.42288">
        <ele>281</ele>
        <time>2024-02-28T16:31:41Z</time>
      </trkpt>
      <trkpt lat="44.38921" lon="4.42269">
        <ele>281.7</ele>
        <time>2024-02-28T16:31:49Z</time>
      </trkpt>
      <trkpt lat="44.38905" lon="4.42254">
        <ele>281.9</ele>
        <time>2024-02-28T16:31:58Z</time>
      </trkpt>
      <trkpt lat="44.38895" lon="4.42232">
        <ele>282.5</ele>
        <time>2024-02-28T16:32:07Z</time>
      </trkpt>
      <trkpt lat="44.38891" lon="4.42206">
        <ele>282.6</ele>
        <time>2024-02-28T16:32:15Z</time>
      </trkpt>
      <trkpt lat="44.38884" lon="4.42183">
        <ele>281.5</ele>
        <time>2024-02-28T16:32:22Z</time>
      </trkpt>
      <trkpt lat="44.38883" lon="4.42158">
        <ele>280.1</ele>
        <time>2024-02-28T16:32:29Z</time>
      </trkpt>
      <trkpt lat="44.38883" lon="4.42133">
        <ele>278.5</ele>
        <time>2024-02-28T16:32:36Z</time>
      </trkpt>
      <trkpt lat="44.38888" lon="4.42105">
        <ele>276.5</ele>
        <time>2024-02-28T16:32:44Z</time>
      </trkpt>
      <trkpt lat="44.38891" lon="4.42079">
        <ele>274.4</ele>
        <time>2024-02-28T16:32:50Z</time>
      </trkpt>
      <trkpt lat="44.38892" lon="4.42073">
        <ele>274</ele>
        <time>2024-02-28T16:32:52Z</time>
      </trkpt>
      <trkpt lat="44.38887" lon="4.42049">
        <ele>271.6</ele>
        <time>2024-02-28T16:32:59Z</time>
      </trkpt>
      <trkpt lat="44.38893" lon="4.42024">
        <ele>269.3</ele>
        <time>2024-02-28T16:33:07Z</time>
      </trkpt>
      <trkpt lat="44.38897" lon="4.41997">
        <ele>266.9</ele>
        <time>2024-02-28T16:33:14Z</time>
      </trkpt>
      <trkpt lat="44.38901" lon="4.41972">
        <ele>264.8</ele>
        <time>2024-02-28T16:33:20Z</time>
      </trkpt>
      <trkpt lat="44.38902" lon="4.41945">
        <ele>262.4</ele>
        <time>2024-02-28T16:33:26Z</time>
      </trkpt>
      <trkpt lat="44.38906" lon="4.41917">
        <ele>260.2</ele>
        <time>2024-02-28T16:33:33Z</time>
      </trkpt>
      <trkpt lat="44.38909" lon="4.41892">
        <ele>258.4</ele>
        <time>2024-02-28T16:33:39Z</time>
      </trkpt>
      <trkpt lat="44.38913" lon="4.41867">
        <ele>256.7</ele>
        <time>2024-02-28T16:33:45Z</time>
      </trkpt>
      <trkpt lat="44.38916" lon="4.4184">
        <ele>254.9</ele>
        <time>2024-02-28T16:33:52Z</time>
      </trkpt>
      <trkpt lat="44.38919" lon="4.41816">
        <ele>253.3</ele>
        <time>2024-02-28T16:33:59Z</time>
      </trkpt>
      <trkpt lat="44.3892" lon="4.41789">
        <ele>251.4</ele>
        <time>2024-02-28T16:34:06Z</time>
      </trkpt>
      <trkpt lat="44.38924" lon="4.41764">
        <ele>249.7</ele>
        <time>2024-02-28T16:34:12Z</time>
      </trkpt>
      <trkpt lat="44.38934" lon="4.41742">
        <ele>248.4</ele>
        <time>2024-02-28T16:34:19Z</time>
      </trkpt>
      <trkpt lat="44.38951" lon="4.41741">
        <ele>248.5</ele>
        <time>2024-02-28T16:34:27Z</time>
      </trkpt>
      <trkpt lat="44.38954" lon="4.41737">
        <ele>248.7</ele>
        <time>2024-02-28T16:34:29Z</time>
      </trkpt>
      <trkpt lat="44.38953" lon="4.41731">
        <ele>248.9</ele>
        <time>2024-02-28T16:34:31Z</time>
      </trkpt>
      <trkpt lat="44.38942" lon="4.41715">
        <ele>249.9</ele>
        <time>2024-02-28T16:34:38Z</time>
      </trkpt>
      <trkpt lat="44.38939" lon="4.41688">
        <ele>251.2</ele>
        <time>2024-02-28T16:34:47Z</time>
      </trkpt>
      <trkpt lat="44.3894" lon="4.41685">
        <ele>251.3</ele>
        <time>2024-02-28T16:34:48Z</time>
      </trkpt>
      <trkpt lat="44.3894" lon="4.41677">
        <ele>251.6</ele>
        <time>2024-02-28T16:34:51Z</time>
      </trkpt>
      <trkpt lat="44.3893" lon="4.41657">
        <ele>252.3</ele>
        <time>2024-02-28T16:34:58Z</time>
      </trkpt>
      <trkpt lat="44.38944" lon="4.4164">
        <ele>253.3</ele>
        <time>2024-02-28T16:35:08Z</time>
      </trkpt>
      <trkpt lat="44.38952" lon="4.4162">
        <ele>253.9</ele>
        <time>2024-02-28T16:35:16Z</time>
      </trkpt>
      <trkpt lat="44.3894" lon="4.41602">
        <ele>254</ele>
        <time>2024-02-28T16:35:23Z</time>
      </trkpt>
      <trkpt lat="44.38928" lon="4.41579">
        <ele>253.7</ele>
        <time>2024-02-28T16:35:31Z</time>
      </trkpt>
      <trkpt lat="44.38924" lon="4.41569">
        <ele>253.7</ele>
        <time>2024-02-28T16:35:35Z</time>
      </trkpt>
      <trkpt lat="44.38924" lon="4.41544">
        <ele>253.6</ele>
        <time>2024-02-28T16:35:43Z</time>
      </trkpt>
      <trkpt lat="44.38923" lon="4.41516">
        <ele>253.5</ele>
        <time>2024-02-28T16:35:51Z</time>
      </trkpt>
      <trkpt lat="44.38921" lon="4.41493">
        <ele>253</ele>
        <time>2024-02-28T16:35:58Z</time>
      </trkpt>
      <trkpt lat="44.38916" lon="4.41484">
        <ele>252.7</ele>
        <time>2024-02-28T16:36:02Z</time>
      </trkpt>
      <trkpt lat="44.38911" lon="4.41464">
        <ele>252.2</ele>
        <time>2024-02-28T16:36:08Z</time>
      </trkpt>
      <trkpt lat="44.38907" lon="4.41437">
        <ele>251.6</ele>
        <time>2024-02-28T16:36:16Z</time>
      </trkpt>
      <trkpt lat="44.38899" lon="4.41414">
        <ele>250.8</ele>
        <time>2024-02-28T16:36:23Z</time>
      </trkpt>
      <trkpt lat="44.38891" lon="4.41393">
        <ele>249.8</ele>
        <time>2024-02-28T16:36:30Z</time>
      </trkpt>
      <trkpt lat="44.38889" lon="4.4139">
        <ele>249.7</ele>
        <time>2024-02-28T16:36:31Z</time>
      </trkpt>
      <trkpt lat="44.38876" lon="4.41373">
        <ele>248.8</ele>
        <time>2024-02-28T16:36:39Z</time>
      </trkpt>
      <trkpt lat="44.38863" lon="4.41351">
        <ele>247.6</ele>
        <time>2024-02-28T16:36:47Z</time>
      </trkpt>
      <trkpt lat="44.38852" lon="4.41331">
        <ele>246.2</ele>
        <time>2024-02-28T16:36:55Z</time>
      </trkpt>
      <trkpt lat="44.38848" lon="4.41331">
        <ele>246</ele>
        <time>2024-02-28T16:37:01Z</time>
      </trkpt>
      <trkpt lat="44.38852" lon="4.41328">
        <ele>246.3</ele>
        <time>2024-02-28T16:38:13Z</time>
      </trkpt>
      <trkpt lat="44.38858" lon="4.4132">
        <ele>246.9</ele>
        <time>2024-02-28T16:38:22Z</time>
      </trkpt>
      <trkpt lat="44.38875" lon="4.41308">
        <ele>248.2</ele>
        <time>2024-02-28T16:38:35Z</time>
      </trkpt>
      <trkpt lat="44.38891" lon="4.41291">
        <ele>249.1</ele>
        <time>2024-02-28T16:38:44Z</time>
      </trkpt>
      <trkpt lat="44.38909" lon="4.4128">
        <ele>249.9</ele>
        <time>2024-02-28T16:38:53Z</time>
      </trkpt>
      <trkpt lat="44.38924" lon="4.41264">
        <ele>250.3</ele>
        <time>2024-02-28T16:39:00Z</time>
      </trkpt>
      <trkpt lat="44.38937" lon="4.41245">
        <ele>250.6</ele>
        <time>2024-02-28T16:39:07Z</time>
      </trkpt>
      <trkpt lat="44.38941" lon="4.41218">
        <ele>250.4</ele>
        <time>2024-02-28T16:39:15Z</time>
      </trkpt>
      <trkpt lat="44.38943" lon="4.41192">
        <ele>250</ele>
        <time>2024-02-28T16:39:21Z</time>
      </trkpt>
      <trkpt lat="44.38947" lon="4.41167">
        <ele>249.5</ele>
        <time>2024-02-28T16:39:27Z</time>
      </trkpt>
      <trkpt lat="44.38943" lon="4.41143">
        <ele>247</ele>
        <time>2024-02-28T16:39:34Z</time>
      </trkpt>
      <trkpt lat="44.38939" lon="4.41118">
        <ele>243.7</ele>
        <time>2024-02-28T16:39:41Z</time>
      </trkpt>
      <trkpt lat="44.38939" lon="4.41093">
        <ele>239.9</ele>
        <time>2024-02-28T16:39:47Z</time>
      </trkpt>
      <trkpt lat="44.38942" lon="4.41068">
        <ele>235.6</ele>
        <time>2024-02-28T16:39:54Z</time>
      </trkpt>
      <trkpt lat="44.38947" lon="4.41041">
        <ele>230.7</ele>
        <time>2024-02-28T16:40:01Z</time>
      </trkpt>
      <trkpt lat="44.38955" lon="4.41019">
        <ele>227.1</ele>
        <time>2024-02-28T16:40:08Z</time>
      </trkpt>
      <trkpt lat="44.38967" lon="4.41">
        <ele>224</ele>
        <time>2024-02-28T16:40:14Z</time>
      </trkpt>
      <trkpt lat="44.3898" lon="4.40979">
        <ele>220.3</ele>
        <time>2024-02-28T16:40:21Z</time>
      </trkpt>
      <trkpt lat="44.38981" lon="4.40971">
        <ele>219.2</ele>
        <time>2024-02-28T16:40:23Z</time>
      </trkpt>
      <trkpt lat="44.38976" lon="4.40945">
        <ele>214.6</ele>
        <time>2024-02-28T16:40:29Z</time>
      </trkpt>
      <trkpt lat="44.38985" lon="4.40921">
        <ele>209.4</ele>
        <time>2024-02-28T16:40:38Z</time>
      </trkpt>
      <trkpt lat="44.39" lon="4.40903">
        <ele>204</ele>
        <time>2024-02-28T16:40:47Z</time>
      </trkpt>
      <trkpt lat="44.39015" lon="4.40887">
        <ele>199.4</ele>
        <time>2024-02-28T16:40:55Z</time>
      </trkpt>
      <trkpt lat="44.39033" lon="4.40882">
        <ele>195.9</ele>
        <time>2024-02-28T16:41:02Z</time>
      </trkpt>
      <trkpt lat="44.39052" lon="4.40882">
        <ele>192</ele>
        <time>2024-02-28T16:41:09Z</time>
      </trkpt>
      <trkpt lat="44.39071" lon="4.40877">
        <ele>188</ele>
        <time>2024-02-28T16:41:17Z</time>
      </trkpt>
      <trkpt lat="44.39088" lon="4.40866">
        <ele>183.9</ele>
        <time>2024-02-28T16:41:25Z</time>
      </trkpt>
      <trkpt lat="44.39103" lon="4.40854">
        <ele>179.7</ele>
        <time>2024-02-28T16:41:32Z</time>
      </trkpt>
      <trkpt lat="44.39121" lon="4.40841">
        <ele>175.6</ele>
        <time>2024-02-28T16:41:39Z</time>
      </trkpt>
      <trkpt lat="44.39139" lon="4.40827">
        <ele>171.5</ele>
        <time>2024-02-28T16:41:46Z</time>
      </trkpt>
      <trkpt lat="44.39151" lon="4.40807">
        <ele>168</ele>
        <time>2024-02-28T16:41:52Z</time>
      </trkpt>
      <trkpt lat="44.39164" lon="4.40787">
        <ele>164.5</ele>
        <time>2024-02-28T16:41:59Z</time>
      </trkpt>
      <trkpt lat="44.39171" lon="4.40776">
        <ele>162.7</ele>
        <time>2024-02-28T16:42:04Z</time>
      </trkpt>
      <trkpt lat="44.39168" lon="4.40764">
        <ele>159.9</ele>
        <time>2024-02-28T16:42:08Z</time>
      </trkpt>
      <trkpt lat="44.39185" lon="4.40754">
        <ele>155.6</ele>
        <time>2024-02-28T16:42:16Z</time>
      </trkpt>
      <trkpt lat="44.39201" lon="4.40764">
        <ele>152.9</ele>
        <time>2024-02-28T16:42:22Z</time>
      </trkpt>
      <trkpt lat="44.39213" lon="4.40785">
        <ele>150.2</ele>
        <time>2024-02-28T16:42:29Z</time>
      </trkpt>
      <trkpt lat="44.39233" lon="4.40784">
        <ele>146.7</ele>
        <time>2024-02-28T16:42:36Z</time>
      </trkpt>
      <trkpt lat="44.39251" lon="4.40778">
        <ele>143.9</ele>
        <time>2024-02-28T16:42:42Z</time>
      </trkpt>
      <trkpt lat="44.39267" lon="4.4079">
        <ele>142</ele>
        <time>2024-02-28T16:42:50Z</time>
      </trkpt>
      <trkpt lat="44.39282" lon="4.40804">
        <ele>140.1</ele>
        <time>2024-02-28T16:42:57Z</time>
      </trkpt>
      <trkpt lat="44.39302" lon="4.40812">
        <ele>138.2</ele>
        <time>2024-02-28T16:43:04Z</time>
      </trkpt>
      <trkpt lat="44.3932" lon="4.40819">
        <ele>136.3</ele>
        <time>2024-02-28T16:43:09Z</time>
      </trkpt>
      <trkpt lat="44.39338" lon="4.40828">
        <ele>133.8</ele>
        <time>2024-02-28T16:43:14Z</time>
      </trkpt>
      <trkpt lat="44.39359" lon="4.40834">
        <ele>130.3</ele>
        <time>2024-02-28T16:43:20Z</time>
      </trkpt>
      <trkpt lat="44.39377" lon="4.40837">
        <ele>127.2</ele>
        <time>2024-02-28T16:43:25Z</time>
      </trkpt>
      <trkpt lat="44.39396" lon="4.40834">
        <ele>123.9</ele>
        <time>2024-02-28T16:43:30Z</time>
      </trkpt>
      <trkpt lat="44.39412" lon="4.40818">
        <ele>120.3</ele>
        <time>2024-02-28T16:43:36Z</time>
      </trkpt>
      <trkpt lat="44.39419" lon="4.40793">
        <ele>116.4</ele>
        <time>2024-02-28T16:43:42Z</time>
      </trkpt>
      <trkpt lat="44.39428" lon="4.40784">
        <ele>113.3</ele>
        <time>2024-02-28T16:43:46Z</time>
      </trkpt>
      <trkpt lat="44.39431" lon="4.40782">
        <ele>112.3</ele>
        <time>2024-02-28T16:43:48Z</time>
      </trkpt>
      <trkpt lat="44.39446" lon="4.40766">
        <ele>106.7</ele>
        <time>2024-02-28T16:43:57Z</time>
      </trkpt>
      <trkpt lat="44.39449" lon="4.40759">
        <ele>105.2</ele>
        <time>2024-02-28T16:43:59Z</time>
      </trkpt>
      <trkpt lat="44.39451" lon="4.40743">
        <ele>102.8</ele>
        <time>2024-02-28T16:44:02Z</time>
      </trkpt>
      <trkpt lat="44.39456" lon="4.40717">
        <ele>99.6</ele>
        <time>2024-02-28T16:44:08Z</time>
      </trkpt>
      <trkpt lat="44.39458" lon="4.40691">
        <ele>96.7</ele>
        <time>2024-02-28T16:44:14Z</time>
      </trkpt>
      <trkpt lat="44.39463" lon="4.40677">
        <ele>94.9</ele>
        <time>2024-02-28T16:44:19Z</time>
      </trkpt>
      <trkpt lat="44.39464" lon="4.40678">
        <ele>94.8</ele>
        <time>2024-02-28T16:44:24Z</time>
      </trkpt>
      <trkpt lat="44.39469" lon="4.40679">
        <ele>94.5</ele>
        <time>2024-02-28T16:44:27Z</time>
      </trkpt>
      <trkpt lat="44.39488" lon="4.40674">
        <ele>93.1</ele>
        <time>2024-02-28T16:44:35Z</time>
      </trkpt>
      <trkpt lat="44.39506" lon="4.40668">
        <ele>91.4</ele>
        <time>2024-02-28T16:44:43Z</time>
      </trkpt>
      <trkpt lat="44.39525" lon="4.40659">
        <ele>89.5</ele>
        <time>2024-02-28T16:44:51Z</time>
      </trkpt>
      <trkpt lat="44.39542" lon="4.40652">
        <ele>88.1</ele>
        <time>2024-02-28T16:44:57Z</time>
      </trkpt>
      <trkpt lat="44.3955" lon="4.40628">
        <ele>86.8</ele>
        <time>2024-02-28T16:45:03Z</time>
      </trkpt>
      <trkpt lat="44.39567" lon="4.40613">
        <ele>86.8</ele>
        <time>2024-02-28T16:45:10Z</time>
      </trkpt>
      <trkpt lat="44.39577" lon="4.40593">
        <ele>87.2</ele>
        <time>2024-02-28T16:45:17Z</time>
      </trkpt>
      <trkpt lat="44.3959" lon="4.40575">
        <ele>87.8</ele>
        <time>2024-02-28T16:45:24Z</time>
      </trkpt>
      <trkpt lat="44.39605" lon="4.40557">
        <ele>88.7</ele>
        <time>2024-02-28T16:45:31Z</time>
      </trkpt>
      <trkpt lat="44.39618" lon="4.40538">
        <ele>89.8</ele>
        <time>2024-02-28T16:45:38Z</time>
      </trkpt>
      <trkpt lat="44.39632" lon="4.40519">
        <ele>91.1</ele>
        <time>2024-02-28T16:45:46Z</time>
      </trkpt>
      <trkpt lat="44.39646" lon="4.40497">
        <ele>92.3</ele>
        <time>2024-02-28T16:45:54Z</time>
      </trkpt>
      <trkpt lat="44.39657" lon="4.40476">
        <ele>93.1</ele>
        <time>2024-02-28T16:46:01Z</time>
      </trkpt>
      <trkpt lat="44.39669" lon="4.40456">
        <ele>93.4</ele>
        <time>2024-02-28T16:46:06Z</time>
      </trkpt>
      <trkpt lat="44.3968" lon="4.40435">
        <ele>93.5</ele>
        <time>2024-02-28T16:46:11Z</time>
      </trkpt>
      <trkpt lat="44.39693" lon="4.40412">
        <ele>93.4</ele>
        <time>2024-02-28T16:46:17Z</time>
      </trkpt>
      <trkpt lat="44.39706" lon="4.40391">
        <ele>93.4</ele>
        <time>2024-02-28T16:46:23Z</time>
      </trkpt>
      <trkpt lat="44.39718" lon="4.40371">
        <ele>93.4</ele>
        <time>2024-02-28T16:46:29Z</time>
      </trkpt>
      <trkpt lat="44.39732" lon="4.40349">
        <ele>93.4</ele>
        <time>2024-02-28T16:46:35Z</time>
      </trkpt>
      <trkpt lat="44.39745" lon="4.4033">
        <ele>93.3</ele>
        <time>2024-02-28T16:46:41Z</time>
      </trkpt>
      <trkpt lat="44.39759" lon="4.40311">
        <ele>93.2</ele>
        <time>2024-02-28T16:46:47Z</time>
      </trkpt>
      <trkpt lat="44.39772" lon="4.40291">
        <ele>93</ele>
        <time>2024-02-28T16:46:53Z</time>
      </trkpt>
      <trkpt lat="44.39785" lon="4.40278">
        <ele>93.1</ele>
        <time>2024-02-28T16:47:08Z</time>
      </trkpt>
      <trkpt lat="44.39803" lon="4.40276">
        <ele>93.5</ele>
        <time>2024-02-28T16:47:15Z</time>
      </trkpt>
      <trkpt lat="44.39823" lon="4.40273">
        <ele>94.1</ele>
        <time>2024-02-28T16:47:22Z</time>
      </trkpt>
      <trkpt lat="44.39842" lon="4.40272">
        <ele>94.9</ele>
        <time>2024-02-28T16:47:29Z</time>
      </trkpt>
      <trkpt lat="44.3986" lon="4.40273">
        <ele>96.1</ele>
        <time>2024-02-28T16:47:36Z</time>
      </trkpt>
      <trkpt lat="44.39875" lon="4.40257">
        <ele>98.3</ele>
        <time>2024-02-28T16:47:44Z</time>
      </trkpt>
      <trkpt lat="44.39886" lon="4.40236">
        <ele>101</ele>
        <time>2024-02-28T16:47:53Z</time>
      </trkpt>
      <trkpt lat="44.39898" lon="4.40215">
        <ele>103.7</ele>
        <time>2024-02-28T16:48:02Z</time>
      </trkpt>
      <trkpt lat="44.39912" lon="4.40201">
        <ele>106.3</ele>
        <time>2024-02-28T16:48:10Z</time>
      </trkpt>
      <trkpt lat="44.39928" lon="4.40185">
        <ele>109</ele>
        <time>2024-02-28T16:48:19Z</time>
      </trkpt>
      <trkpt lat="44.39941" lon="4.40167">
        <ele>111.5</ele>
        <time>2024-02-28T16:48:27Z</time>
      </trkpt>
      <trkpt lat="44.39956" lon="4.40153">
        <ele>114.1</ele>
        <time>2024-02-28T16:48:36Z</time>
      </trkpt>
      <trkpt lat="44.39961" lon="4.40128">
        <ele>117.3</ele>
        <time>2024-02-28T16:48:45Z</time>
      </trkpt>
      <trkpt lat="44.39964" lon="4.40101">
        <ele>119.6</ele>
        <time>2024-02-28T16:48:55Z</time>
      </trkpt>
      <trkpt lat="44.39958" lon="4.40076">
        <ele>118.6</ele>
        <time>2024-02-28T16:49:05Z</time>
      </trkpt>
      <trkpt lat="44.3995" lon="4.40052">
        <ele>117.9</ele>
        <time>2024-02-28T16:49:12Z</time>
      </trkpt>
      <trkpt lat="44.39946" lon="4.40027">
        <ele>118.1</ele>
        <time>2024-02-28T16:49:20Z</time>
      </trkpt>
      <trkpt lat="44.3994" lon="4.4">
        <ele>118.7</ele>
        <time>2024-02-28T16:49:28Z</time>
      </trkpt>
      <trkpt lat="44.39936" lon="4.39974">
        <ele>117.7</ele>
        <time>2024-02-28T16:49:34Z</time>
      </trkpt>
      <trkpt lat="44.39934" lon="4.39946">
        <ele>115.3</ele>
        <time>2024-02-28T16:49:41Z</time>
      </trkpt>
      <trkpt lat="44.3993" lon="4.39919">
        <ele>112.6</ele>
        <time>2024-02-28T16:49:47Z</time>
      </trkpt>
      <trkpt lat="44.39932" lon="4.39893">
        <ele>110.7</ele>
        <time>2024-02-28T16:49:52Z</time>
      </trkpt>
      <trkpt lat="44.39931" lon="4.39868">
        <ele>109.3</ele>
        <time>2024-02-28T16:49:58Z</time>
      </trkpt>
      <trkpt lat="44.39932" lon="4.39842">
        <ele>108.2</ele>
        <time>2024-02-28T16:50:04Z</time>
      </trkpt>
      <trkpt lat="44.39932" lon="4.39815">
        <ele>107.1</ele>
        <time>2024-02-28T16:50:11Z</time>
      </trkpt>
      <trkpt lat="44.39929" lon="4.39789">
        <ele>105.3</ele>
        <time>2024-02-28T16:50:17Z</time>
      </trkpt>
      <trkpt lat="44.39923" lon="4.39765">
        <ele>102.9</ele>
        <time>2024-02-28T16:50:22Z</time>
      </trkpt>
      <trkpt lat="44.39918" lon="4.39741">
        <ele>100.7</ele>
        <time>2024-02-28T16:50:27Z</time>
      </trkpt>
      <trkpt lat="44.39913" lon="4.39715">
        <ele>98.7</ele>
        <time>2024-02-28T16:50:33Z</time>
      </trkpt>
      <trkpt lat="44.39912" lon="4.39683">
        <ele>96.7</ele>
        <time>2024-02-28T16:50:39Z</time>
      </trkpt>
      <trkpt lat="44.39911" lon="4.39658">
        <ele>95.3</ele>
        <time>2024-02-28T16:50:44Z</time>
      </trkpt>
      <trkpt lat="44.39908" lon="4.39632">
        <ele>93.9</ele>
        <time>2024-02-28T16:50:50Z</time>
      </trkpt>
      <trkpt lat="44.39901" lon="4.39604">
        <ele>92.2</ele>
        <time>2024-02-28T16:50:56Z</time>
      </trkpt>
      <trkpt lat="44.39898" lon="4.39579">
        <ele>91.4</ele>
        <time>2024-02-28T16:51:02Z</time>
      </trkpt>
      <trkpt lat="44.39882" lon="4.39564">
        <ele>91.2</ele>
        <time>2024-02-28T16:51:09Z</time>
      </trkpt>
      <trkpt lat="44.39866" lon="4.39548">
        <ele>91.4</ele>
        <time>2024-02-28T16:51:16Z</time>
      </trkpt>
      <trkpt lat="44.39859" lon="4.39526">
        <ele>91.3</ele>
        <time>2024-02-28T16:51:22Z</time>
      </trkpt>
      <trkpt lat="44.39861" lon="4.39498">
        <ele>91.3</ele>
        <time>2024-02-28T16:51:28Z</time>
      </trkpt>
      <trkpt lat="44.39864" lon="4.3947">
        <ele>91.3</ele>
        <time>2024-02-28T16:51:34Z</time>
      </trkpt>
      <trkpt lat="44.39864" lon="4.39454">
        <ele>91.1</ele>
        <time>2024-02-28T16:51:39Z</time>
      </trkpt>
      <trkpt lat="44.39845" lon="4.39449">
        <ele>90.7</ele>
        <time>2024-02-28T16:51:48Z</time>
      </trkpt>
      <trkpt lat="44.39827" lon="4.39441">
        <ele>90.3</ele>
        <time>2024-02-28T16:51:55Z</time>
      </trkpt>
      <trkpt lat="44.39807" lon="4.39435">
        <ele>89.8</ele>
        <time>2024-02-28T16:52:02Z</time>
      </trkpt>
      <trkpt lat="44.39791" lon="4.39418">
        <ele>89</ele>
        <time>2024-02-28T16:52:09Z</time>
      </trkpt>
      <trkpt lat="44.39779" lon="4.39397">
        <ele>88.2</ele>
        <time>2024-02-28T16:52:15Z</time>
      </trkpt>
      <trkpt lat="44.39767" lon="4.39376">
        <ele>87.8</ele>
        <time>2024-02-28T16:52:21Z</time>
      </trkpt>
      <trkpt lat="44.39759" lon="4.39351">
        <ele>87.8</ele>
        <time>2024-02-28T16:52:27Z</time>
      </trkpt>
      <trkpt lat="44.39753" lon="4.39327">
        <ele>87.9</ele>
        <time>2024-02-28T16:52:33Z</time>
      </trkpt>
      <trkpt lat="44.39748" lon="4.39299">
        <ele>88.1</ele>
        <time>2024-02-28T16:52:40Z</time>
      </trkpt>
      <trkpt lat="44.39743" lon="4.39275">
        <ele>88.3</ele>
        <time>2024-02-28T16:52:46Z</time>
      </trkpt>
      <trkpt lat="44.39739" lon="4.39247">
        <ele>88.6</ele>
        <time>2024-02-28T16:52:53Z</time>
      </trkpt>
      <trkpt lat="44.39733" lon="4.39222">
        <ele>88.9</ele>
        <time>2024-02-28T16:52:59Z</time>
      </trkpt>
      <trkpt lat="44.39729" lon="4.39195">
        <ele>89.2</ele>
        <time>2024-02-28T16:53:06Z</time>
      </trkpt>
      <trkpt lat="44.39726" lon="4.39169">
        <ele>89.3</ele>
        <time>2024-02-28T16:53:13Z</time>
      </trkpt>
      <trkpt lat="44.39725" lon="4.39142">
        <ele>89</ele>
        <time>2024-02-28T16:53:20Z</time>
      </trkpt>
      <trkpt lat="44.39722" lon="4.39118">
        <ele>88.8</ele>
        <time>2024-02-28T16:53:27Z</time>
      </trkpt>
      <trkpt lat="44.39714" lon="4.39096">
        <ele>88.7</ele>
        <time>2024-02-28T16:53:33Z</time>
      </trkpt>
      <trkpt lat="44.39708" lon="4.39069">
        <ele>88.8</ele>
        <time>2024-02-28T16:53:40Z</time>
      </trkpt>
      <trkpt lat="44.39701" lon="4.39042">
        <ele>88.8</ele>
        <time>2024-02-28T16:53:47Z</time>
      </trkpt>
      <trkpt lat="44.39692" lon="4.3902">
        <ele>88.8</ele>
        <time>2024-02-28T16:53:53Z</time>
      </trkpt>
      <trkpt lat="44.39683" lon="4.38997">
        <ele>88.9</ele>
        <time>2024-02-28T16:53:59Z</time>
      </trkpt>
      <trkpt lat="44.39683" lon="4.38972">
        <ele>89.2</ele>
        <time>2024-02-28T16:54:06Z</time>
      </trkpt>
      <trkpt lat="44.39685" lon="4.3897">
        <ele>89.2</ele>
        <time>2024-02-28T16:54:07Z</time>
      </trkpt>
      <trkpt lat="44.39705" lon="4.38962">
        <ele>89.7</ele>
        <time>2024-02-28T16:54:14Z</time>
      </trkpt>
      <trkpt lat="44.39726" lon="4.38956">
        <ele>91</ele>
        <time>2024-02-28T16:54:21Z</time>
      </trkpt>
      <trkpt lat="44.39743" lon="4.38948">
        <ele>92.3</ele>
        <time>2024-02-28T16:54:27Z</time>
      </trkpt>
      <trkpt lat="44.3976" lon="4.38941">
        <ele>93.5</ele>
        <time>2024-02-28T16:54:33Z</time>
      </trkpt>
      <trkpt lat="44.39778" lon="4.38932">
        <ele>93.6</ele>
        <time>2024-02-28T16:54:40Z</time>
      </trkpt>
      <trkpt lat="44.39796" lon="4.38923">
        <ele>93.6</ele>
        <time>2024-02-28T16:54:47Z</time>
      </trkpt>
      <trkpt lat="44.3981" lon="4.38911">
        <ele>93.5</ele>
        <time>2024-02-28T16:54:55Z</time>
      </trkpt>
    </trkseg>
  </trk>
</gpx>